<?xml version="1.0" encoding="UTF-8" standalone="no" ?>
<gpx xmlns="http://www.topografix.com/GPX/1/1" xmlns:xsi="http://www.w3.org/2001/XMLSchema-instance" xsi:schemaLocation="http://www.topografix.com/GPX/1/1 http://www.topografix.com/GPX/1/1/gpx.xsd" version="1.1" creator="VisuGPX - https://www.visugpx.com">
  <metadata>
    <name>Gresse-en-Vercors Marche à pied</name>
  </metadata>
  <trk>
    <name><![CDATA[Gresse-en-Vercors Marche à pied]]></name>
    <trkseg>
      <trkpt lat="44.88863" lon="5.50875">
        <ele>1614.4</ele>
        <time>2020-06-27T13:32:46.000Z</time>
      </trkpt>
      <trkpt lat="44.88928" lon="5.50879">
        <ele>1611.2</ele>
        <time>2020-06-27T13:32:46.071Z</time>
      </trkpt>
      <trkpt lat="44.88928" lon="5.50854">
        <ele>1610.3</ele>
        <time>2020-06-27T13:32:46.161Z</time>
      </trkpt>
      <trkpt lat="44.88927" lon="5.50864">
        <ele>1610.7</ele>
        <time>2020-06-27T13:32:46.259Z</time>
      </trkpt>
      <trkpt lat="44.88929" lon="5.50866">
        <ele>1610.7</ele>
        <time>2020-06-27T13:32:46.360Z</time>
      </trkpt>
      <trkpt lat="44.88933" lon="5.50849">
        <ele>1610</ele>
        <time>2020-06-27T13:32:46.475Z</time>
      </trkpt>
      <trkpt lat="44.8893" lon="5.50862">
        <ele>1610.5</ele>
        <time>2020-06-27T13:32:46.600Z</time>
      </trkpt>
      <trkpt lat="44.88931" lon="5.50839">
        <ele>1609.9</ele>
        <time>2020-06-27T13:32:46.743Z</time>
      </trkpt>
      <trkpt lat="44.88936" lon="5.50863">
        <ele>1610.2</ele>
        <time>2020-06-27T13:32:46.905Z</time>
      </trkpt>
      <trkpt lat="44.88934" lon="5.50859">
        <ele>1610.2</ele>
        <time>2020-06-27T13:32:47.071Z</time>
      </trkpt>
      <trkpt lat="44.88934" lon="5.50842">
        <ele>1609.8</ele>
        <time>2020-06-27T13:32:47.249Z</time>
      </trkpt>
      <trkpt lat="44.88934" lon="5.50851">
        <ele>1610</ele>
        <time>2020-06-27T13:32:47.434Z</time>
      </trkpt>
      <trkpt lat="44.88941" lon="5.50857">
        <ele>1609.9</ele>
        <time>2020-06-27T13:32:47.628Z</time>
      </trkpt>
      <trkpt lat="44.8894" lon="5.50834">
        <ele>1609.4</ele>
        <time>2020-06-27T13:32:47.839Z</time>
      </trkpt>
      <trkpt lat="44.88941" lon="5.50848">
        <ele>1609.7</ele>
        <time>2020-06-27T13:32:48.062Z</time>
      </trkpt>
      <trkpt lat="44.88946" lon="5.50852">
        <ele>1609.6</ele>
        <time>2020-06-27T13:32:48.291Z</time>
      </trkpt>
      <trkpt lat="44.88944" lon="5.50827">
        <ele>1609.1</ele>
        <time>2020-06-27T13:32:48.540Z</time>
      </trkpt>
      <trkpt lat="44.88947" lon="5.50837">
        <ele>1609.2</ele>
        <time>2020-06-27T13:32:48.798Z</time>
      </trkpt>
      <trkpt lat="44.88947" lon="5.50832">
        <ele>1609.1</ele>
        <time>2020-06-27T13:32:49.060Z</time>
      </trkpt>
      <trkpt lat="44.88949" lon="5.50834">
        <ele>1609.1</ele>
        <time>2020-06-27T13:32:49.324Z</time>
      </trkpt>
      <trkpt lat="44.8895" lon="5.50831">
        <ele>1609</ele>
        <time>2020-06-27T13:32:49.591Z</time>
      </trkpt>
      <trkpt lat="44.88951" lon="5.50841">
        <ele>1609.2</ele>
        <time>2020-06-27T13:32:49.865Z</time>
      </trkpt>
      <trkpt lat="44.88951" lon="5.50838">
        <ele>1609.1</ele>
        <time>2020-06-27T13:32:50.141Z</time>
      </trkpt>
      <trkpt lat="44.88955" lon="5.50842">
        <ele>1609.1</ele>
        <time>2020-06-27T13:32:50.422Z</time>
      </trkpt>
      <trkpt lat="44.88949" lon="5.50833">
        <ele>1609.1</ele>
        <time>2020-06-27T13:32:50.712Z</time>
      </trkpt>
      <trkpt lat="44.88952" lon="5.50828">
        <ele>1608.8</ele>
        <time>2020-06-27T13:32:51.007Z</time>
      </trkpt>
      <trkpt lat="44.88954" lon="5.5082">
        <ele>1608.6</ele>
        <time>2020-06-27T13:32:51.308Z</time>
      </trkpt>
      <trkpt lat="44.88951" lon="5.50784">
        <ele>1608</ele>
        <time>2020-06-27T13:32:51.637Z</time>
      </trkpt>
      <trkpt lat="44.88958" lon="5.50771">
        <ele>1607.7</ele>
        <time>2020-06-27T13:32:51.979Z</time>
      </trkpt>
      <trkpt lat="44.88967" lon="5.50762">
        <ele>1607.5</ele>
        <time>2020-06-27T13:32:52.333Z</time>
      </trkpt>
      <trkpt lat="44.88974" lon="5.50749">
        <ele>1607.4</ele>
        <time>2020-06-27T13:32:52.700Z</time>
      </trkpt>
      <trkpt lat="44.8898" lon="5.50742">
        <ele>1607.3</ele>
        <time>2020-06-27T13:32:53.076Z</time>
      </trkpt>
      <trkpt lat="44.88991" lon="5.50724">
        <ele>1606.8</ele>
        <time>2020-06-27T13:32:53.470Z</time>
      </trkpt>
      <trkpt lat="44.88999" lon="5.50704">
        <ele>1606.8</ele>
        <time>2020-06-27T13:32:53.881Z</time>
      </trkpt>
      <trkpt lat="44.89014" lon="5.50686">
        <ele>1606.8</ele>
        <time>2020-06-27T13:32:54.314Z</time>
      </trkpt>
      <trkpt lat="44.89021" lon="5.50665">
        <ele>1605.9</ele>
        <time>2020-06-27T13:32:54.765Z</time>
      </trkpt>
      <trkpt lat="44.89028" lon="5.50651">
        <ele>1605.1</ele>
        <time>2020-06-27T13:32:55.229Z</time>
      </trkpt>
      <trkpt lat="44.89031" lon="5.50648">
        <ele>1604.9</ele>
        <time>2020-06-27T13:32:55.697Z</time>
      </trkpt>
      <trkpt lat="44.89032" lon="5.50638">
        <ele>1604.6</ele>
        <time>2020-06-27T13:32:56.173Z</time>
      </trkpt>
      <trkpt lat="44.89036" lon="5.50631">
        <ele>1604.2</ele>
        <time>2020-06-27T13:32:56.656Z</time>
      </trkpt>
      <trkpt lat="44.89047" lon="5.50621">
        <ele>1604.3</ele>
        <time>2020-06-27T13:32:57.153Z</time>
      </trkpt>
      <trkpt lat="44.89058" lon="5.50602">
        <ele>1604.8</ele>
        <time>2020-06-27T13:32:57.669Z</time>
      </trkpt>
      <trkpt lat="44.89074" lon="5.50585">
        <ele>1605.2</ele>
        <time>2020-06-27T13:32:58.207Z</time>
      </trkpt>
      <trkpt lat="44.89086" lon="5.50561">
        <ele>1604.5</ele>
        <time>2020-06-27T13:32:58.768Z</time>
      </trkpt>
      <trkpt lat="44.8909" lon="5.50548">
        <ele>1604.2</ele>
        <time>2020-06-27T13:32:59.340Z</time>
      </trkpt>
      <trkpt lat="44.89095" lon="5.50541">
        <ele>1604.1</ele>
        <time>2020-06-27T13:32:59.920Z</time>
      </trkpt>
      <trkpt lat="44.89111" lon="5.50514">
        <ele>1603</ele>
        <time>2020-06-27T13:33:00.527Z</time>
      </trkpt>
      <trkpt lat="44.89127" lon="5.50496">
        <ele>1601.7</ele>
        <time>2020-06-27T13:33:01.156Z</time>
      </trkpt>
      <trkpt lat="44.89154" lon="5.505">
        <ele>1601.8</ele>
        <time>2020-06-27T13:33:01.814Z</time>
      </trkpt>
      <trkpt lat="44.89176" lon="5.50507">
        <ele>1602.1</ele>
        <time>2020-06-27T13:33:02.497Z</time>
      </trkpt>
      <trkpt lat="44.89184" lon="5.50508">
        <ele>1602.2</ele>
        <time>2020-06-27T13:33:03.189Z</time>
      </trkpt>
      <trkpt lat="44.89196" lon="5.50513">
        <ele>1602.4</ele>
        <time>2020-06-27T13:33:03.895Z</time>
      </trkpt>
      <trkpt lat="44.89203" lon="5.5052">
        <ele>1602.6</ele>
        <time>2020-06-27T13:33:04.610Z</time>
      </trkpt>
      <trkpt lat="44.89213" lon="5.50526">
        <ele>1602.7</ele>
        <time>2020-06-27T13:33:05.337Z</time>
      </trkpt>
      <trkpt lat="44.89242" lon="5.50534">
        <ele>1602.8</ele>
        <time>2020-06-27T13:33:06.096Z</time>
      </trkpt>
      <trkpt lat="44.8925" lon="5.50535">
        <ele>1602.8</ele>
        <time>2020-06-27T13:33:06.864Z</time>
      </trkpt>
      <trkpt lat="44.89264" lon="5.50531">
        <ele>1602.8</ele>
        <time>2020-06-27T13:33:07.648Z</time>
      </trkpt>
      <trkpt lat="44.89274" lon="5.50534">
        <ele>1602.8</ele>
        <time>2020-06-27T13:33:08.442Z</time>
      </trkpt>
      <trkpt lat="44.89298" lon="5.50545">
        <ele>1603.1</ele>
        <time>2020-06-27T13:33:09.264Z</time>
      </trkpt>
      <trkpt lat="44.89318" lon="5.50559">
        <ele>1604</ele>
        <time>2020-06-27T13:33:10.110Z</time>
      </trkpt>
      <trkpt lat="44.89334" lon="5.50563">
        <ele>1604.5</ele>
        <time>2020-06-27T13:33:10.974Z</time>
      </trkpt>
      <trkpt lat="44.89345" lon="5.50573">
        <ele>1605.1</ele>
        <time>2020-06-27T13:33:11.852Z</time>
      </trkpt>
      <trkpt lat="44.8935" lon="5.50582">
        <ele>1605.6</ele>
        <time>2020-06-27T13:33:12.739Z</time>
      </trkpt>
      <trkpt lat="44.89352" lon="5.50585">
        <ele>1605.7</ele>
        <time>2020-06-27T13:33:13.629Z</time>
      </trkpt>
      <trkpt lat="44.89361" lon="5.50602">
        <ele>1606.6</ele>
        <time>2020-06-27T13:33:14.535Z</time>
      </trkpt>
      <trkpt lat="44.89357" lon="5.50603">
        <ele>1606.5</ele>
        <time>2020-06-27T13:33:15.445Z</time>
      </trkpt>
      <trkpt lat="44.89358" lon="5.50596">
        <ele>1606.3</ele>
        <time>2020-06-27T13:33:16.360Z</time>
      </trkpt>
      <trkpt lat="44.89358" lon="5.506">
        <ele>1606.4</ele>
        <time>2020-06-27T13:33:17.278Z</time>
      </trkpt>
      <trkpt lat="44.89363" lon="5.5061">
        <ele>1606.9</ele>
        <time>2020-06-27T13:33:18.206Z</time>
      </trkpt>
      <trkpt lat="44.89376" lon="5.50622">
        <ele>1607.7</ele>
        <time>2020-06-27T13:33:19.151Z</time>
      </trkpt>
      <trkpt lat="44.89374" lon="5.50626">
        <ele>1607.7</ele>
        <time>2020-06-27T13:33:20.099Z</time>
      </trkpt>
      <trkpt lat="44.89385" lon="5.50612">
        <ele>1607.5</ele>
        <time>2020-06-27T13:33:21.064Z</time>
      </trkpt>
      <trkpt lat="44.89386" lon="5.50592">
        <ele>1606.8</ele>
        <time>2020-06-27T13:33:22.044Z</time>
      </trkpt>
      <trkpt lat="44.89387" lon="5.50588">
        <ele>1606.7</ele>
        <time>2020-06-27T13:33:23.027Z</time>
      </trkpt>
      <trkpt lat="44.8939" lon="5.50585">
        <ele>1606.7</ele>
        <time>2020-06-27T13:33:24.014Z</time>
      </trkpt>
      <trkpt lat="44.89397" lon="5.50583">
        <ele>1606.8</ele>
        <time>2020-06-27T13:33:25.010Z</time>
      </trkpt>
      <trkpt lat="44.89414" lon="5.50588">
        <ele>1607.3</ele>
        <time>2020-06-27T13:33:26.025Z</time>
      </trkpt>
      <trkpt lat="44.89419" lon="5.50588">
        <ele>1607.4</ele>
        <time>2020-06-27T13:33:27.045Z</time>
      </trkpt>
      <trkpt lat="44.8943" lon="5.5058">
        <ele>1607.1</ele>
        <time>2020-06-27T13:33:28.079Z</time>
      </trkpt>
      <trkpt lat="44.89437" lon="5.50572">
        <ele>1606.8</ele>
        <time>2020-06-27T13:33:29.122Z</time>
      </trkpt>
      <trkpt lat="44.89443" lon="5.5057">
        <ele>1606.8</ele>
        <time>2020-06-27T13:33:30.171Z</time>
      </trkpt>
      <trkpt lat="44.89444" lon="5.50571">
        <ele>1606.9</ele>
        <time>2020-06-27T13:33:31.222Z</time>
      </trkpt>
      <trkpt lat="44.89443" lon="5.50569">
        <ele>1606.7</ele>
        <time>2020-06-27T13:33:32.275Z</time>
      </trkpt>
      <trkpt lat="44.89447" lon="5.50561">
        <ele>1606.4</ele>
        <time>2020-06-27T13:33:33.336Z</time>
      </trkpt>
      <trkpt lat="44.89466" lon="5.50556">
        <ele>1605.9</ele>
        <time>2020-06-27T13:33:34.418Z</time>
      </trkpt>
      <trkpt lat="44.89475" lon="5.50551">
        <ele>1605</ele>
        <time>2020-06-27T13:33:35.511Z</time>
      </trkpt>
      <trkpt lat="44.89481" lon="5.50555">
        <ele>1604.9</ele>
        <time>2020-06-27T13:33:36.611Z</time>
      </trkpt>
      <trkpt lat="44.89489" lon="5.50553">
        <ele>1604.3</ele>
        <time>2020-06-27T13:33:37.720Z</time>
      </trkpt>
      <trkpt lat="44.89505" lon="5.50542">
        <ele>1603.4</ele>
        <time>2020-06-27T13:33:38.847Z</time>
      </trkpt>
      <trkpt lat="44.89519" lon="5.50536">
        <ele>1602.8</ele>
        <time>2020-06-27T13:33:39.991Z</time>
      </trkpt>
      <trkpt lat="44.89544" lon="5.5052">
        <ele>1602.4</ele>
        <time>2020-06-27T13:33:41.165Z</time>
      </trkpt>
      <trkpt lat="44.89558" lon="5.50514">
        <ele>1603.6</ele>
        <time>2020-06-27T13:33:42.354Z</time>
      </trkpt>
      <trkpt lat="44.89575" lon="5.50518">
        <ele>1604.7</ele>
        <time>2020-06-27T13:33:43.562Z</time>
      </trkpt>
      <trkpt lat="44.89585" lon="5.50525">
        <ele>1605.1</ele>
        <time>2020-06-27T13:33:44.782Z</time>
      </trkpt>
      <trkpt lat="44.89592" lon="5.50536">
        <ele>1605.3</ele>
        <time>2020-06-27T13:33:46.014Z</time>
      </trkpt>
      <trkpt lat="44.89614" lon="5.50547">
        <ele>1606.4</ele>
        <time>2020-06-27T13:33:47.271Z</time>
      </trkpt>
      <trkpt lat="44.89629" lon="5.50558">
        <ele>1607.8</ele>
        <time>2020-06-27T13:33:48.547Z</time>
      </trkpt>
      <trkpt lat="44.89635" lon="5.50556">
        <ele>1608.6</ele>
        <time>2020-06-27T13:33:49.830Z</time>
      </trkpt>
      <trkpt lat="44.89639" lon="5.50558">
        <ele>1609.2</ele>
        <time>2020-06-27T13:33:51.117Z</time>
      </trkpt>
      <trkpt lat="44.89646" lon="5.50574">
        <ele>1610</ele>
        <time>2020-06-27T13:33:52.419Z</time>
      </trkpt>
      <trkpt lat="44.89645" lon="5.50578">
        <ele>1609.9</ele>
        <time>2020-06-27T13:33:53.724Z</time>
      </trkpt>
      <trkpt lat="44.89654" lon="5.50586">
        <ele>1611.1</ele>
        <time>2020-06-27T13:33:55.040Z</time>
      </trkpt>
      <trkpt lat="44.89664" lon="5.506">
        <ele>1612.5</ele>
        <time>2020-06-27T13:33:56.371Z</time>
      </trkpt>
      <trkpt lat="44.89671" lon="5.50597">
        <ele>1613.3</ele>
        <time>2020-06-27T13:33:57.711Z</time>
      </trkpt>
      <trkpt lat="44.89683" lon="5.50598">
        <ele>1615</ele>
        <time>2020-06-27T13:33:59.063Z</time>
      </trkpt>
      <trkpt lat="44.89694" lon="5.50604">
        <ele>1616.5</ele>
        <time>2020-06-27T13:34:00.427Z</time>
      </trkpt>
      <trkpt lat="44.89717" lon="5.50609">
        <ele>1617.8</ele>
        <time>2020-06-27T13:34:01.817Z</time>
      </trkpt>
      <trkpt lat="44.89724" lon="5.50607">
        <ele>1617.5</ele>
        <time>2020-06-27T13:34:03.215Z</time>
      </trkpt>
      <trkpt lat="44.89726" lon="5.50605">
        <ele>1617.4</ele>
        <time>2020-06-27T13:34:04.616Z</time>
      </trkpt>
      <trkpt lat="44.89743" lon="5.50583">
        <ele>1617</ele>
        <time>2020-06-27T13:34:06.042Z</time>
      </trkpt>
      <trkpt lat="44.89757" lon="5.50577">
        <ele>1617.1</ele>
        <time>2020-06-27T13:34:07.484Z</time>
      </trkpt>
      <trkpt lat="44.89769" lon="5.5057">
        <ele>1617.3</ele>
        <time>2020-06-27T13:34:08.940Z</time>
      </trkpt>
      <trkpt lat="44.89777" lon="5.50569">
        <ele>1617.2</ele>
        <time>2020-06-27T13:34:10.405Z</time>
      </trkpt>
      <trkpt lat="44.89783" lon="5.50563">
        <ele>1617.5</ele>
        <time>2020-06-27T13:34:11.878Z</time>
      </trkpt>
      <trkpt lat="44.89798" lon="5.50567">
        <ele>1617</ele>
        <time>2020-06-27T13:34:13.368Z</time>
      </trkpt>
      <trkpt lat="44.89805" lon="5.50566">
        <ele>1616.9</ele>
        <time>2020-06-27T13:34:14.865Z</time>
      </trkpt>
      <trkpt lat="44.8981" lon="5.50563">
        <ele>1616.8</ele>
        <time>2020-06-27T13:34:16.368Z</time>
      </trkpt>
      <trkpt lat="44.89826" lon="5.50564">
        <ele>1616.2</ele>
        <time>2020-06-27T13:34:17.889Z</time>
      </trkpt>
      <trkpt lat="44.89845" lon="5.50558">
        <ele>1615.7</ele>
        <time>2020-06-27T13:34:19.431Z</time>
      </trkpt>
      <trkpt lat="44.89849" lon="5.50555">
        <ele>1615.7</ele>
        <time>2020-06-27T13:34:20.978Z</time>
      </trkpt>
      <trkpt lat="44.89852" lon="5.50552">
        <ele>1615.7</ele>
        <time>2020-06-27T13:34:22.529Z</time>
      </trkpt>
      <trkpt lat="44.89874" lon="5.50539">
        <ele>1615.7</ele>
        <time>2020-06-27T13:34:24.106Z</time>
      </trkpt>
      <trkpt lat="44.89913" lon="5.50521">
        <ele>1616.3</ele>
        <time>2020-06-27T13:34:25.728Z</time>
      </trkpt>
      <trkpt lat="44.8992" lon="5.50516">
        <ele>1616.5</ele>
        <time>2020-06-27T13:34:27.359Z</time>
      </trkpt>
      <trkpt lat="44.89928" lon="5.50515">
        <ele>1616.3</ele>
        <time>2020-06-27T13:34:28.998Z</time>
      </trkpt>
      <trkpt lat="44.89951" lon="5.50509">
        <ele>1615.7</ele>
        <time>2020-06-27T13:34:30.663Z</time>
      </trkpt>
      <trkpt lat="44.89966" lon="5.50501">
        <ele>1616.4</ele>
        <time>2020-06-27T13:34:32.345Z</time>
      </trkpt>
      <trkpt lat="44.89975" lon="5.50501">
        <ele>1617.1</ele>
        <time>2020-06-27T13:34:34.036Z</time>
      </trkpt>
      <trkpt lat="44.89988" lon="5.50504">
        <ele>1617.9</ele>
        <time>2020-06-27T13:34:35.742Z</time>
      </trkpt>
      <trkpt lat="44.9" lon="5.50503">
        <ele>1618.8</ele>
        <time>2020-06-27T13:34:37.462Z</time>
      </trkpt>
      <trkpt lat="44.90009" lon="5.50504">
        <ele>1619.4</ele>
        <time>2020-06-27T13:34:39.191Z</time>
      </trkpt>
      <trkpt lat="44.90015" lon="5.50501">
        <ele>1620</ele>
        <time>2020-06-27T13:34:40.927Z</time>
      </trkpt>
      <trkpt lat="44.90023" lon="5.505">
        <ele>1620.6</ele>
        <time>2020-06-27T13:34:42.671Z</time>
      </trkpt>
      <trkpt lat="44.90036" lon="5.50503">
        <ele>1621.4</ele>
        <time>2020-06-27T13:34:44.430Z</time>
      </trkpt>
      <trkpt lat="44.90041" lon="5.50502">
        <ele>1621.9</ele>
        <time>2020-06-27T13:34:46.194Z</time>
      </trkpt>
      <trkpt lat="44.90051" lon="5.50492">
        <ele>1623.9</ele>
        <time>2020-06-27T13:34:47.972Z</time>
      </trkpt>
      <trkpt lat="44.90057" lon="5.50491">
        <ele>1625</ele>
        <time>2020-06-27T13:34:49.756Z</time>
      </trkpt>
      <trkpt lat="44.90069" lon="5.50498">
        <ele>1626.7</ele>
        <time>2020-06-27T13:34:51.554Z</time>
      </trkpt>
      <trkpt lat="44.90073" lon="5.50497">
        <ele>1627.3</ele>
        <time>2020-06-27T13:34:53.357Z</time>
      </trkpt>
      <trkpt lat="44.90078" lon="5.50497">
        <ele>1627.7</ele>
        <time>2020-06-27T13:34:55.165Z</time>
      </trkpt>
      <trkpt lat="44.9009" lon="5.50507">
        <ele>1629.2</ele>
        <time>2020-06-27T13:34:56.988Z</time>
      </trkpt>
      <trkpt lat="44.90103" lon="5.50512">
        <ele>1630.7</ele>
        <time>2020-06-27T13:34:58.826Z</time>
      </trkpt>
      <trkpt lat="44.90118" lon="5.5053">
        <ele>1632.8</ele>
        <time>2020-06-27T13:35:00.685Z</time>
      </trkpt>
      <trkpt lat="44.90129" lon="5.50553">
        <ele>1634.4</ele>
        <time>2020-06-27T13:35:02.566Z</time>
      </trkpt>
      <trkpt lat="44.90135" lon="5.50559">
        <ele>1635.1</ele>
        <time>2020-06-27T13:35:04.455Z</time>
      </trkpt>
      <trkpt lat="44.90144" lon="5.50577">
        <ele>1636.2</ele>
        <time>2020-06-27T13:35:06.361Z</time>
      </trkpt>
      <trkpt lat="44.90151" lon="5.50581">
        <ele>1636.9</ele>
        <time>2020-06-27T13:35:08.275Z</time>
      </trkpt>
      <trkpt lat="44.90156" lon="5.50589">
        <ele>1637.4</ele>
        <time>2020-06-27T13:35:10.198Z</time>
      </trkpt>
      <trkpt lat="44.90161" lon="5.50593">
        <ele>1638</ele>
        <time>2020-06-27T13:35:12.127Z</time>
      </trkpt>
      <trkpt lat="44.90168" lon="5.50609">
        <ele>1638.6</ele>
        <time>2020-06-27T13:35:14.071Z</time>
      </trkpt>
      <trkpt lat="44.90181" lon="5.50619">
        <ele>1640.1</ele>
        <time>2020-06-27T13:35:16.031Z</time>
      </trkpt>
      <trkpt lat="44.90194" lon="5.50624">
        <ele>1641.6</ele>
        <time>2020-06-27T13:35:18.005Z</time>
      </trkpt>
      <trkpt lat="44.90209" lon="5.50634">
        <ele>1643.1</ele>
        <time>2020-06-27T13:35:19.997Z</time>
      </trkpt>
      <trkpt lat="44.90213" lon="5.50633">
        <ele>1643</ele>
        <time>2020-06-27T13:35:21.993Z</time>
      </trkpt>
      <trkpt lat="44.90217" lon="5.50635">
        <ele>1643.2</ele>
        <time>2020-06-27T13:35:23.994Z</time>
      </trkpt>
      <trkpt lat="44.90235" lon="5.50654">
        <ele>1646.2</ele>
        <time>2020-06-27T13:35:26.020Z</time>
      </trkpt>
      <trkpt lat="44.9024" lon="5.50657">
        <ele>1646.7</ele>
        <time>2020-06-27T13:35:28.052Z</time>
      </trkpt>
      <trkpt lat="44.90248" lon="5.50665">
        <ele>1647.9</ele>
        <time>2020-06-27T13:35:30.094Z</time>
      </trkpt>
      <trkpt lat="44.90259" lon="5.50679">
        <ele>1650.1</ele>
        <time>2020-06-27T13:35:32.152Z</time>
      </trkpt>
      <trkpt lat="44.90279" lon="5.50689">
        <ele>1651.7</ele>
        <time>2020-06-27T13:35:34.234Z</time>
      </trkpt>
      <trkpt lat="44.90306" lon="5.5073">
        <ele>1654.9</ele>
        <time>2020-06-27T13:35:36.358Z</time>
      </trkpt>
      <trkpt lat="44.90321" lon="5.50746">
        <ele>1654.3</ele>
        <time>2020-06-27T13:35:38.503Z</time>
      </trkpt>
      <trkpt lat="44.90328" lon="5.50756">
        <ele>1654.3</ele>
        <time>2020-06-27T13:35:40.659Z</time>
      </trkpt>
      <trkpt lat="44.90335" lon="5.5076">
        <ele>1653.6</ele>
        <time>2020-06-27T13:35:42.823Z</time>
      </trkpt>
      <trkpt lat="44.90338" lon="5.50763">
        <ele>1653.5</ele>
        <time>2020-06-27T13:35:44.992Z</time>
      </trkpt>
      <trkpt lat="44.90344" lon="5.50767">
        <ele>1653</ele>
        <time>2020-06-27T13:35:47.168Z</time>
      </trkpt>
      <trkpt lat="44.90344" lon="5.50771">
        <ele>1653.4</ele>
        <time>2020-06-27T13:35:49.347Z</time>
      </trkpt>
      <trkpt lat="44.90385" lon="5.50834">
        <ele>1655.3</ele>
        <time>2020-06-27T13:35:51.592Z</time>
      </trkpt>
      <trkpt lat="44.90389" lon="5.50846">
        <ele>1656.5</ele>
        <time>2020-06-27T13:35:53.847Z</time>
      </trkpt>
      <trkpt lat="44.904" lon="5.50858">
        <ele>1656.8</ele>
        <time>2020-06-27T13:35:56.117Z</time>
      </trkpt>
      <trkpt lat="44.90411" lon="5.50868">
        <ele>1656.8</ele>
        <time>2020-06-27T13:35:58.402Z</time>
      </trkpt>
      <trkpt lat="44.90416" lon="5.50868">
        <ele>1656.1</ele>
        <time>2020-06-27T13:36:00.692Z</time>
      </trkpt>
      <trkpt lat="44.90421" lon="5.50866">
        <ele>1655.2</ele>
        <time>2020-06-27T13:36:02.987Z</time>
      </trkpt>
      <trkpt lat="44.90429" lon="5.50869">
        <ele>1654.6</ele>
        <time>2020-06-27T13:36:05.292Z</time>
      </trkpt>
      <trkpt lat="44.90434" lon="5.50869">
        <ele>1653.9</ele>
        <time>2020-06-27T13:36:07.603Z</time>
      </trkpt>
      <trkpt lat="44.90466" lon="5.50888">
        <ele>1654</ele>
        <time>2020-06-27T13:36:09.951Z</time>
      </trkpt>
      <trkpt lat="44.90495" lon="5.50927">
        <ele>1662.1</ele>
        <time>2020-06-27T13:36:12.343Z</time>
      </trkpt>
      <trkpt lat="44.90503" lon="5.50944">
        <ele>1666</ele>
        <time>2020-06-27T13:36:14.750Z</time>
      </trkpt>
      <trkpt lat="44.90512" lon="5.5095">
        <ele>1667.1</ele>
        <time>2020-06-27T13:36:17.168Z</time>
      </trkpt>
      <trkpt lat="44.90514" lon="5.50953">
        <ele>1667.8</ele>
        <time>2020-06-27T13:36:19.589Z</time>
      </trkpt>
      <trkpt lat="44.90516" lon="5.50961">
        <ele>1669.7</ele>
        <time>2020-06-27T13:36:22.017Z</time>
      </trkpt>
      <trkpt lat="44.90518" lon="5.50963">
        <ele>1670.1</ele>
        <time>2020-06-27T13:36:24.448Z</time>
      </trkpt>
      <trkpt lat="44.90523" lon="5.50972">
        <ele>1672.4</ele>
        <time>2020-06-27T13:36:26.888Z</time>
      </trkpt>
      <trkpt lat="44.90527" lon="5.50992">
        <ele>1678.5</ele>
        <time>2020-06-27T13:36:29.344Z</time>
      </trkpt>
      <trkpt lat="44.90535" lon="5.51004">
        <ele>1681.8</ele>
        <time>2020-06-27T13:36:31.812Z</time>
      </trkpt>
      <trkpt lat="44.90537" lon="5.51014">
        <ele>1684.9</ele>
        <time>2020-06-27T13:36:34.288Z</time>
      </trkpt>
      <trkpt lat="44.90542" lon="5.51019">
        <ele>1686</ele>
        <time>2020-06-27T13:36:36.770Z</time>
      </trkpt>
      <trkpt lat="44.90538" lon="5.51017">
        <ele>1685.7</ele>
        <time>2020-06-27T13:36:39.256Z</time>
      </trkpt>
      <trkpt lat="44.90546" lon="5.51002">
        <ele>1680.3</ele>
        <time>2020-06-27T13:36:41.756Z</time>
      </trkpt>
      <trkpt lat="44.90565" lon="5.50979">
        <ele>1671.6</ele>
        <time>2020-06-27T13:36:44.283Z</time>
      </trkpt>
      <trkpt lat="44.90574" lon="5.50973">
        <ele>1669.5</ele>
        <time>2020-06-27T13:36:46.821Z</time>
      </trkpt>
      <trkpt lat="44.90576" lon="5.50968">
        <ele>1668.1</ele>
        <time>2020-06-27T13:36:49.364Z</time>
      </trkpt>
      <trkpt lat="44.90586" lon="5.50956">
        <ele>1665.2</ele>
        <time>2020-06-27T13:36:51.921Z</time>
      </trkpt>
      <trkpt lat="44.90589" lon="5.50954">
        <ele>1664.6</ele>
        <time>2020-06-27T13:36:54.482Z</time>
      </trkpt>
      <trkpt lat="44.90595" lon="5.50939">
        <ele>1661.4</ele>
        <time>2020-06-27T13:36:57.057Z</time>
      </trkpt>
      <trkpt lat="44.90614" lon="5.50912">
        <ele>1657.2</ele>
        <time>2020-06-27T13:36:59.660Z</time>
      </trkpt>
      <trkpt lat="44.90619" lon="5.50896">
        <ele>1654.9</ele>
        <time>2020-06-27T13:37:02.277Z</time>
      </trkpt>
      <trkpt lat="44.90627" lon="5.50881">
        <ele>1652.7</ele>
        <time>2020-06-27T13:37:04.909Z</time>
      </trkpt>
      <trkpt lat="44.90629" lon="5.50871">
        <ele>1651.3</ele>
        <time>2020-06-27T13:37:07.549Z</time>
      </trkpt>
      <trkpt lat="44.90634" lon="5.50861">
        <ele>1650</ele>
        <time>2020-06-27T13:37:10.198Z</time>
      </trkpt>
      <trkpt lat="44.90638" lon="5.50845">
        <ele>1647.8</ele>
        <time>2020-06-27T13:37:12.860Z</time>
      </trkpt>
      <trkpt lat="44.90658" lon="5.50817">
        <ele>1643.8</ele>
        <time>2020-06-27T13:37:15.553Z</time>
      </trkpt>
      <trkpt lat="44.90669" lon="5.50808">
        <ele>1642.3</ele>
        <time>2020-06-27T13:37:18.260Z</time>
      </trkpt>
      <trkpt lat="44.90687" lon="5.50797">
        <ele>1640.9</ele>
        <time>2020-06-27T13:37:20.988Z</time>
      </trkpt>
      <trkpt lat="44.90694" lon="5.5079">
        <ele>1640.8</ele>
        <time>2020-06-27T13:37:23.725Z</time>
      </trkpt>
      <trkpt lat="44.90705" lon="5.50775">
        <ele>1637.9</ele>
        <time>2020-06-27T13:37:26.479Z</time>
      </trkpt>
      <trkpt lat="44.90723" lon="5.5077">
        <ele>1638.6</ele>
        <time>2020-06-27T13:37:29.253Z</time>
      </trkpt>
      <trkpt lat="44.90733" lon="5.50773">
        <ele>1639.9</ele>
        <time>2020-06-27T13:37:32.038Z</time>
      </trkpt>
      <trkpt lat="44.90737" lon="5.50776">
        <ele>1640.7</ele>
        <time>2020-06-27T13:37:34.828Z</time>
      </trkpt>
      <trkpt lat="44.90744" lon="5.50769">
        <ele>1640.5</ele>
        <time>2020-06-27T13:37:37.628Z</time>
      </trkpt>
      <trkpt lat="44.90749" lon="5.50767">
        <ele>1640.7</ele>
        <time>2020-06-27T13:37:40.433Z</time>
      </trkpt>
      <trkpt lat="44.90759" lon="5.50753">
        <ele>1638.4</ele>
        <time>2020-06-27T13:37:43.254Z</time>
      </trkpt>
      <trkpt lat="44.90765" lon="5.50748">
        <ele>1637.4</ele>
        <time>2020-06-27T13:37:46.082Z</time>
      </trkpt>
      <trkpt lat="44.90786" lon="5.50737">
        <ele>1635.3</ele>
        <time>2020-06-27T13:37:48.934Z</time>
      </trkpt>
      <trkpt lat="44.90791" lon="5.50725">
        <ele>1632.8</ele>
        <time>2020-06-27T13:37:51.797Z</time>
      </trkpt>
      <trkpt lat="44.90801" lon="5.50715">
        <ele>1631.5</ele>
        <time>2020-06-27T13:37:54.673Z</time>
      </trkpt>
      <trkpt lat="44.90809" lon="5.507">
        <ele>1630.1</ele>
        <time>2020-06-27T13:37:57.564Z</time>
      </trkpt>
      <trkpt lat="44.90829" lon="5.50684">
        <ele>1629.5</ele>
        <time>2020-06-27T13:38:00.480Z</time>
      </trkpt>
      <trkpt lat="44.90861" lon="5.50641">
        <ele>1621.5</ele>
        <time>2020-06-27T13:38:03.444Z</time>
      </trkpt>
      <trkpt lat="44.90884" lon="5.50618">
        <ele>1621</ele>
        <time>2020-06-27T13:38:06.439Z</time>
      </trkpt>
      <trkpt lat="44.90894" lon="5.50606">
        <ele>1622.2</ele>
        <time>2020-06-27T13:38:09.448Z</time>
      </trkpt>
      <trkpt lat="44.90899" lon="5.50592">
        <ele>1622.2</ele>
        <time>2020-06-27T13:38:12.469Z</time>
      </trkpt>
      <trkpt lat="44.90902" lon="5.50573">
        <ele>1621.3</ele>
        <time>2020-06-27T13:38:15.505Z</time>
      </trkpt>
      <trkpt lat="44.90909" lon="5.50554">
        <ele>1620.4</ele>
        <time>2020-06-27T13:38:18.557Z</time>
      </trkpt>
      <trkpt lat="44.9092" lon="5.50546">
        <ele>1622.2</ele>
        <time>2020-06-27T13:38:21.622Z</time>
      </trkpt>
      <trkpt lat="44.90939" lon="5.50511">
        <ele>1625.7</ele>
        <time>2020-06-27T13:38:24.722Z</time>
      </trkpt>
      <trkpt lat="44.90944" lon="5.50506">
        <ele>1625.6</ele>
        <time>2020-06-27T13:38:27.828Z</time>
      </trkpt>
      <trkpt lat="44.90962" lon="5.50481">
        <ele>1625.5</ele>
        <time>2020-06-27T13:38:30.962Z</time>
      </trkpt>
      <trkpt lat="44.90964" lon="5.50472">
        <ele>1625.2</ele>
        <time>2020-06-27T13:38:34.103Z</time>
      </trkpt>
      <trkpt lat="44.90971" lon="5.50467">
        <ele>1625.2</ele>
        <time>2020-06-27T13:38:37.252Z</time>
      </trkpt>
      <trkpt lat="44.90976" lon="5.5045">
        <ele>1626.8</ele>
        <time>2020-06-27T13:38:40.415Z</time>
      </trkpt>
      <trkpt lat="44.9098" lon="5.50444">
        <ele>1627.6</ele>
        <time>2020-06-27T13:38:43.584Z</time>
      </trkpt>
      <trkpt lat="44.9099" lon="5.50418">
        <ele>1630.3</ele>
        <time>2020-06-27T13:38:46.776Z</time>
      </trkpt>
      <trkpt lat="44.90996" lon="5.50418">
        <ele>1630.1</ele>
        <time>2020-06-27T13:38:49.974Z</time>
      </trkpt>
      <trkpt lat="44.90995" lon="5.5042">
        <ele>1630.3</ele>
        <time>2020-06-27T13:38:53.174Z</time>
      </trkpt>
      <trkpt lat="44.90997" lon="5.50421">
        <ele>1630.3</ele>
        <time>2020-06-27T13:38:56.376Z</time>
      </trkpt>
      <trkpt lat="44.90996" lon="5.50419">
        <ele>1630.2</ele>
        <time>2020-06-27T13:38:59.579Z</time>
      </trkpt>
      <trkpt lat="44.90993" lon="5.5042">
        <ele>1630.4</ele>
        <time>2020-06-27T13:39:02.785Z</time>
      </trkpt>
      <trkpt lat="44.90993" lon="5.50413">
        <ele>1629.9</ele>
        <time>2020-06-27T13:39:05.996Z</time>
      </trkpt>
      <trkpt lat="44.91004" lon="5.50386">
        <ele>1626.8</ele>
        <time>2020-06-27T13:39:09.231Z</time>
      </trkpt>
      <trkpt lat="44.91009" lon="5.50383">
        <ele>1626.3</ele>
        <time>2020-06-27T13:39:12.472Z</time>
      </trkpt>
      <trkpt lat="44.91016" lon="5.50367">
        <ele>1626.7</ele>
        <time>2020-06-27T13:39:15.727Z</time>
      </trkpt>
      <trkpt lat="44.91027" lon="5.5035">
        <ele>1625.5</ele>
        <time>2020-06-27T13:39:19.000Z</time>
      </trkpt>
      <trkpt lat="44.91033" lon="5.50322">
        <ele>1624.3</ele>
        <time>2020-06-27T13:39:22.296Z</time>
      </trkpt>
      <trkpt lat="44.91031" lon="5.50305">
        <ele>1624.4</ele>
        <time>2020-06-27T13:39:25.604Z</time>
      </trkpt>
      <trkpt lat="44.91032" lon="5.50296">
        <ele>1624.1</ele>
        <time>2020-06-27T13:39:28.920Z</time>
      </trkpt>
      <trkpt lat="44.9103" lon="5.50288">
        <ele>1624.3</ele>
        <time>2020-06-27T13:39:32.242Z</time>
      </trkpt>
      <trkpt lat="44.91031" lon="5.50285">
        <ele>1624.2</ele>
        <time>2020-06-27T13:39:35.567Z</time>
      </trkpt>
      <trkpt lat="44.91033" lon="5.50286">
        <ele>1623.9</ele>
        <time>2020-06-27T13:39:38.894Z</time>
      </trkpt>
      <trkpt lat="44.91033" lon="5.50282">
        <ele>1623.9</ele>
        <time>2020-06-27T13:39:42.224Z</time>
      </trkpt>
      <trkpt lat="44.91031" lon="5.50259">
        <ele>1624.2</ele>
        <time>2020-06-27T13:39:45.572Z</time>
      </trkpt>
      <trkpt lat="44.91031" lon="5.5024">
        <ele>1624.2</ele>
        <time>2020-06-27T13:39:48.935Z</time>
      </trkpt>
      <trkpt lat="44.91035" lon="5.50233">
        <ele>1623.7</ele>
        <time>2020-06-27T13:39:52.305Z</time>
      </trkpt>
      <trkpt lat="44.91042" lon="5.50229">
        <ele>1622.9</ele>
        <time>2020-06-27T13:39:55.683Z</time>
      </trkpt>
      <trkpt lat="44.9105" lon="5.50227">
        <ele>1622.3</ele>
        <time>2020-06-27T13:39:59.070Z</time>
      </trkpt>
      <trkpt lat="44.91058" lon="5.50221">
        <ele>1620.9</ele>
        <time>2020-06-27T13:40:02.466Z</time>
      </trkpt>
      <trkpt lat="44.9106" lon="5.50221">
        <ele>1620.6</ele>
        <time>2020-06-27T13:40:05.865Z</time>
      </trkpt>
      <trkpt lat="44.91065" lon="5.50215">
        <ele>1619.7</ele>
        <time>2020-06-27T13:40:09.271Z</time>
      </trkpt>
      <trkpt lat="44.91078" lon="5.50204">
        <ele>1618.2</ele>
        <time>2020-06-27T13:40:12.694Z</time>
      </trkpt>
      <trkpt lat="44.91081" lon="5.50206">
        <ele>1617.7</ele>
        <time>2020-06-27T13:40:16.120Z</time>
      </trkpt>
      <trkpt lat="44.91083" lon="5.50211">
        <ele>1617.4</ele>
        <time>2020-06-27T13:40:19.551Z</time>
      </trkpt>
      <trkpt lat="44.91078" lon="5.50218">
        <ele>1618.1</ele>
        <time>2020-06-27T13:40:22.990Z</time>
      </trkpt>
      <trkpt lat="44.91073" lon="5.50217">
        <ele>1618.7</ele>
        <time>2020-06-27T13:40:26.435Z</time>
      </trkpt>
      <trkpt lat="44.9107" lon="5.50215">
        <ele>1619.1</ele>
        <time>2020-06-27T13:40:29.883Z</time>
      </trkpt>
      <trkpt lat="44.91067" lon="5.50215">
        <ele>1619.5</ele>
        <time>2020-06-27T13:40:33.335Z</time>
      </trkpt>
      <trkpt lat="44.91064" lon="5.50206">
        <ele>1620</ele>
        <time>2020-06-27T13:40:36.794Z</time>
      </trkpt>
      <trkpt lat="44.91065" lon="5.50208">
        <ele>1619.8</ele>
        <time>2020-06-27T13:40:40.255Z</time>
      </trkpt>
      <trkpt lat="44.91067" lon="5.50208">
        <ele>1619.6</ele>
        <time>2020-06-27T13:40:43.719Z</time>
      </trkpt>
      <trkpt lat="44.91067" lon="5.50216">
        <ele>1619.5</ele>
        <time>2020-06-27T13:40:47.188Z</time>
      </trkpt>
      <trkpt lat="44.91066" lon="5.50214">
        <ele>1619.6</ele>
        <time>2020-06-27T13:40:50.658Z</time>
      </trkpt>
      <trkpt lat="44.91067" lon="5.50215">
        <ele>1619.5</ele>
        <time>2020-06-27T13:40:54.130Z</time>
      </trkpt>
      <trkpt lat="44.91069" lon="5.50214">
        <ele>1619.2</ele>
        <time>2020-06-27T13:40:57.605Z</time>
      </trkpt>
      <trkpt lat="44.91071" lon="5.50215">
        <ele>1619</ele>
        <time>2020-06-27T13:41:01.081Z</time>
      </trkpt>
      <trkpt lat="44.91072" lon="5.50211">
        <ele>1618.9</ele>
        <time>2020-06-27T13:41:04.561Z</time>
      </trkpt>
      <trkpt lat="44.9108" lon="5.50216">
        <ele>1617.8</ele>
        <time>2020-06-27T13:41:08.051Z</time>
      </trkpt>
      <trkpt lat="44.9107" lon="5.50209">
        <ele>1619.2</ele>
        <time>2020-06-27T13:41:11.553Z</time>
      </trkpt>
      <trkpt lat="44.91073" lon="5.50204">
        <ele>1618.8</ele>
        <time>2020-06-27T13:41:15.059Z</time>
      </trkpt>
      <trkpt lat="44.91101" lon="5.50202">
        <ele>1615.2</ele>
        <time>2020-06-27T13:41:18.596Z</time>
      </trkpt>
      <trkpt lat="44.91106" lon="5.50198">
        <ele>1614.6</ele>
        <time>2020-06-27T13:41:22.139Z</time>
      </trkpt>
      <trkpt lat="44.9111" lon="5.50192">
        <ele>1614.5</ele>
        <time>2020-06-27T13:41:25.689Z</time>
      </trkpt>
      <trkpt lat="44.91114" lon="5.50189">
        <ele>1614.2</ele>
        <time>2020-06-27T13:41:29.244Z</time>
      </trkpt>
      <trkpt lat="44.91127" lon="5.50186">
        <ele>1613.5</ele>
        <time>2020-06-27T13:41:32.813Z</time>
      </trkpt>
      <trkpt lat="44.91139" lon="5.50186">
        <ele>1613.7</ele>
        <time>2020-06-27T13:41:36.395Z</time>
      </trkpt>
      <trkpt lat="44.91144" lon="5.50192">
        <ele>1613.4</ele>
        <time>2020-06-27T13:41:39.984Z</time>
      </trkpt>
      <trkpt lat="44.91151" lon="5.50195">
        <ele>1613.4</ele>
        <time>2020-06-27T13:41:43.581Z</time>
      </trkpt>
      <trkpt lat="44.91154" lon="5.50193">
        <ele>1613.5</ele>
        <time>2020-06-27T13:41:47.182Z</time>
      </trkpt>
      <trkpt lat="44.91159" lon="5.50193">
        <ele>1613.6</ele>
        <time>2020-06-27T13:41:50.788Z</time>
      </trkpt>
      <trkpt lat="44.91166" lon="5.50199">
        <ele>1613.4</ele>
        <time>2020-06-27T13:41:54.403Z</time>
      </trkpt>
      <trkpt lat="44.91174" lon="5.50198">
        <ele>1613.5</ele>
        <time>2020-06-27T13:41:58.026Z</time>
      </trkpt>
      <trkpt lat="44.91184" lon="5.502">
        <ele>1613.5</ele>
        <time>2020-06-27T13:42:01.660Z</time>
      </trkpt>
      <trkpt lat="44.91195" lon="5.50199">
        <ele>1613.8</ele>
        <time>2020-06-27T13:42:05.306Z</time>
      </trkpt>
      <trkpt lat="44.91211" lon="5.50188">
        <ele>1615.2</ele>
        <time>2020-06-27T13:42:08.971Z</time>
      </trkpt>
      <trkpt lat="44.91218" lon="5.50187">
        <ele>1616.1</ele>
        <time>2020-06-27T13:42:12.645Z</time>
      </trkpt>
      <trkpt lat="44.91234" lon="5.50175">
        <ele>1618.8</ele>
        <time>2020-06-27T13:42:16.338Z</time>
      </trkpt>
      <trkpt lat="44.91245" lon="5.50172">
        <ele>1620.3</ele>
        <time>2020-06-27T13:42:20.044Z</time>
      </trkpt>
      <trkpt lat="44.91251" lon="5.50165">
        <ele>1619.7</ele>
        <time>2020-06-27T13:42:23.757Z</time>
      </trkpt>
      <trkpt lat="44.91258" lon="5.50162">
        <ele>1619.4</ele>
        <time>2020-06-27T13:42:27.479Z</time>
      </trkpt>
      <trkpt lat="44.91271" lon="5.5016">
        <ele>1619.1</ele>
        <time>2020-06-27T13:42:31.215Z</time>
      </trkpt>
      <trkpt lat="44.91283" lon="5.50155">
        <ele>1618.6</ele>
        <time>2020-06-27T13:42:34.964Z</time>
      </trkpt>
      <trkpt lat="44.91292" lon="5.5016">
        <ele>1619</ele>
        <time>2020-06-27T13:42:38.723Z</time>
      </trkpt>
      <trkpt lat="44.91297" lon="5.50158">
        <ele>1618.9</ele>
        <time>2020-06-27T13:42:42.488Z</time>
      </trkpt>
      <trkpt lat="44.91304" lon="5.50153">
        <ele>1618.7</ele>
        <time>2020-06-27T13:42:46.262Z</time>
      </trkpt>
      <trkpt lat="44.91316" lon="5.50148">
        <ele>1618.3</ele>
        <time>2020-06-27T13:42:50.050Z</time>
      </trkpt>
      <trkpt lat="44.9133" lon="5.50129">
        <ele>1616.8</ele>
        <time>2020-06-27T13:42:53.859Z</time>
      </trkpt>
      <trkpt lat="44.91342" lon="5.50126">
        <ele>1616.9</ele>
        <time>2020-06-27T13:42:57.681Z</time>
      </trkpt>
      <trkpt lat="44.91353" lon="5.50115">
        <ele>1617.6</ele>
        <time>2020-06-27T13:43:01.517Z</time>
      </trkpt>
      <trkpt lat="44.91363" lon="5.50113">
        <ele>1617.1</ele>
        <time>2020-06-27T13:43:05.365Z</time>
      </trkpt>
      <trkpt lat="44.91367" lon="5.50101">
        <ele>1617.2</ele>
        <time>2020-06-27T13:43:09.223Z</time>
      </trkpt>
      <trkpt lat="44.91372" lon="5.50097">
        <ele>1617</ele>
        <time>2020-06-27T13:43:13.087Z</time>
      </trkpt>
      <trkpt lat="44.91374" lon="5.50088">
        <ele>1617.1</ele>
        <time>2020-06-27T13:43:16.958Z</time>
      </trkpt>
      <trkpt lat="44.91377" lon="5.50085">
        <ele>1617.2</ele>
        <time>2020-06-27T13:43:20.833Z</time>
      </trkpt>
      <trkpt lat="44.91377" lon="5.50082">
        <ele>1617.2</ele>
        <time>2020-06-27T13:43:24.711Z</time>
      </trkpt>
      <trkpt lat="44.91388" lon="5.50076">
        <ele>1617.4</ele>
        <time>2020-06-27T13:43:28.601Z</time>
      </trkpt>
      <trkpt lat="44.91396" lon="5.50076">
        <ele>1617.4</ele>
        <time>2020-06-27T13:43:32.500Z</time>
      </trkpt>
      <trkpt lat="44.91401" lon="5.5008">
        <ele>1617.3</ele>
        <time>2020-06-27T13:43:36.405Z</time>
      </trkpt>
      <trkpt lat="44.91407" lon="5.50079">
        <ele>1617.1</ele>
        <time>2020-06-27T13:43:40.316Z</time>
      </trkpt>
      <trkpt lat="44.91412" lon="5.50083">
        <ele>1617</ele>
        <time>2020-06-27T13:43:44.233Z</time>
      </trkpt>
      <trkpt lat="44.91416" lon="5.5008">
        <ele>1616.8</ele>
        <time>2020-06-27T13:43:48.155Z</time>
      </trkpt>
      <trkpt lat="44.91426" lon="5.50081">
        <ele>1616.5</ele>
        <time>2020-06-27T13:43:52.089Z</time>
      </trkpt>
      <trkpt lat="44.91439" lon="5.50087">
        <ele>1616.1</ele>
        <time>2020-06-27T13:43:56.037Z</time>
      </trkpt>
      <trkpt lat="44.91441" lon="5.50095">
        <ele>1616.1</ele>
        <time>2020-06-27T13:43:59.992Z</time>
      </trkpt>
      <trkpt lat="44.91449" lon="5.50112">
        <ele>1616</ele>
        <time>2020-06-27T13:44:03.962Z</time>
      </trkpt>
      <trkpt lat="44.91462" lon="5.50122">
        <ele>1615.7</ele>
        <time>2020-06-27T13:44:07.949Z</time>
      </trkpt>
      <trkpt lat="44.91465" lon="5.50122">
        <ele>1615.6</ele>
        <time>2020-06-27T13:44:11.939Z</time>
      </trkpt>
      <trkpt lat="44.91473" lon="5.50113">
        <ele>1615.2</ele>
        <time>2020-06-27T13:44:15.939Z</time>
      </trkpt>
      <trkpt lat="44.91478" lon="5.50112">
        <ele>1615</ele>
        <time>2020-06-27T13:44:19.945Z</time>
      </trkpt>
      <trkpt lat="44.91481" lon="5.50108">
        <ele>1614.8</ele>
        <time>2020-06-27T13:44:23.956Z</time>
      </trkpt>
      <trkpt lat="44.91484" lon="5.50109">
        <ele>1614.7</ele>
        <time>2020-06-27T13:44:27.970Z</time>
      </trkpt>
      <trkpt lat="44.91485" lon="5.50111">
        <ele>1614.7</ele>
        <time>2020-06-27T13:44:31.986Z</time>
      </trkpt>
      <trkpt lat="44.91489" lon="5.5011">
        <ele>1614.6</ele>
        <time>2020-06-27T13:44:36.007Z</time>
      </trkpt>
      <trkpt lat="44.91492" lon="5.50103">
        <ele>1614.4</ele>
        <time>2020-06-27T13:44:40.034Z</time>
      </trkpt>
      <trkpt lat="44.915" lon="5.50103">
        <ele>1614.1</ele>
        <time>2020-06-27T13:44:44.069Z</time>
      </trkpt>
      <trkpt lat="44.91509" lon="5.50095">
        <ele>1613.6</ele>
        <time>2020-06-27T13:44:48.116Z</time>
      </trkpt>
      <trkpt lat="44.91514" lon="5.5008">
        <ele>1613</ele>
        <time>2020-06-27T13:44:52.176Z</time>
      </trkpt>
      <trkpt lat="44.91523" lon="5.50074">
        <ele>1612.4</ele>
        <time>2020-06-27T13:44:56.246Z</time>
      </trkpt>
      <trkpt lat="44.91529" lon="5.50057">
        <ele>1611.7</ele>
        <time>2020-06-27T13:45:00.331Z</time>
      </trkpt>
      <trkpt lat="44.91536" lon="5.50047">
        <ele>1611.1</ele>
        <time>2020-06-27T13:45:04.427Z</time>
      </trkpt>
      <trkpt lat="44.91535" lon="5.50027">
        <ele>1610.9</ele>
        <time>2020-06-27T13:45:08.539Z</time>
      </trkpt>
      <trkpt lat="44.91543" lon="5.50008">
        <ele>1610.5</ele>
        <time>2020-06-27T13:45:12.667Z</time>
      </trkpt>
      <trkpt lat="44.91544" lon="5.49988">
        <ele>1610.3</ele>
        <time>2020-06-27T13:45:16.811Z</time>
      </trkpt>
      <trkpt lat="44.91549" lon="5.49976">
        <ele>1610.1</ele>
        <time>2020-06-27T13:45:20.966Z</time>
      </trkpt>
      <trkpt lat="44.91556" lon="5.49943">
        <ele>1608.5</ele>
        <time>2020-06-27T13:45:25.148Z</time>
      </trkpt>
      <trkpt lat="44.91561" lon="5.49938">
        <ele>1608.1</ele>
        <time>2020-06-27T13:45:29.337Z</time>
      </trkpt>
      <trkpt lat="44.91562" lon="5.49931">
        <ele>1607.8</ele>
        <time>2020-06-27T13:45:33.531Z</time>
      </trkpt>
      <trkpt lat="44.91568" lon="5.49931">
        <ele>1607.6</ele>
        <time>2020-06-27T13:45:37.731Z</time>
      </trkpt>
      <trkpt lat="44.91573" lon="5.49925">
        <ele>1607.2</ele>
        <time>2020-06-27T13:45:41.938Z</time>
      </trkpt>
      <trkpt lat="44.9158" lon="5.49927">
        <ele>1607.1</ele>
        <time>2020-06-27T13:45:46.152Z</time>
      </trkpt>
      <trkpt lat="44.91578" lon="5.49924">
        <ele>1607</ele>
        <time>2020-06-27T13:45:50.369Z</time>
      </trkpt>
      <trkpt lat="44.91578" lon="5.49928">
        <ele>1607.2</ele>
        <time>2020-06-27T13:45:54.589Z</time>
      </trkpt>
      <trkpt lat="44.91577" lon="5.49929">
        <ele>1607.3</ele>
        <time>2020-06-27T13:45:58.811Z</time>
      </trkpt>
      <trkpt lat="44.91578" lon="5.49927">
        <ele>1607.2</ele>
        <time>2020-06-27T13:46:03.034Z</time>
      </trkpt>
      <trkpt lat="44.91576" lon="5.49922">
        <ele>1607</ele>
        <time>2020-06-27T13:46:07.262Z</time>
      </trkpt>
      <trkpt lat="44.91576" lon="5.49928">
        <ele>1607.3</ele>
        <time>2020-06-27T13:46:11.494Z</time>
      </trkpt>
      <trkpt lat="44.91579" lon="5.49928">
        <ele>1607.2</ele>
        <time>2020-06-27T13:46:15.729Z</time>
      </trkpt>
      <trkpt lat="44.9158" lon="5.49925">
        <ele>1607</ele>
        <time>2020-06-27T13:46:19.966Z</time>
      </trkpt>
      <trkpt lat="44.91581" lon="5.49928">
        <ele>1607.2</ele>
        <time>2020-06-27T13:46:24.205Z</time>
      </trkpt>
      <trkpt lat="44.9158" lon="5.49931">
        <ele>1607.3</ele>
        <time>2020-06-27T13:46:28.448Z</time>
      </trkpt>
      <trkpt lat="44.91581" lon="5.49927">
        <ele>1607.1</ele>
        <time>2020-06-27T13:46:32.694Z</time>
      </trkpt>
      <trkpt lat="44.91583" lon="5.49929">
        <ele>1607.2</ele>
        <time>2020-06-27T13:46:36.943Z</time>
      </trkpt>
      <trkpt lat="44.91587" lon="5.49927">
        <ele>1606.9</ele>
        <time>2020-06-27T13:46:41.197Z</time>
      </trkpt>
      <trkpt lat="44.91589" lon="5.49929">
        <ele>1607</ele>
        <time>2020-06-27T13:46:45.454Z</time>
      </trkpt>
      <trkpt lat="44.9159" lon="5.49929">
        <ele>1606.9</ele>
        <time>2020-06-27T13:46:49.713Z</time>
      </trkpt>
      <trkpt lat="44.91592" lon="5.49923">
        <ele>1606.5</ele>
        <time>2020-06-27T13:46:53.976Z</time>
      </trkpt>
      <trkpt lat="44.91596" lon="5.49919">
        <ele>1606.1</ele>
        <time>2020-06-27T13:46:58.244Z</time>
      </trkpt>
      <trkpt lat="44.91598" lon="5.49919">
        <ele>1606.1</ele>
        <time>2020-06-27T13:47:02.515Z</time>
      </trkpt>
      <trkpt lat="44.91599" lon="5.49917">
        <ele>1605.9</ele>
        <time>2020-06-27T13:47:06.788Z</time>
      </trkpt>
      <trkpt lat="44.91603" lon="5.49916">
        <ele>1605.7</ele>
        <time>2020-06-27T13:47:11.066Z</time>
      </trkpt>
      <trkpt lat="44.91607" lon="5.4991">
        <ele>1605.2</ele>
        <time>2020-06-27T13:47:15.350Z</time>
      </trkpt>
      <trkpt lat="44.91611" lon="5.49911">
        <ele>1605.1</ele>
        <time>2020-06-27T13:47:19.638Z</time>
      </trkpt>
      <trkpt lat="44.91612" lon="5.49913">
        <ele>1605.2</ele>
        <time>2020-06-27T13:47:23.928Z</time>
      </trkpt>
      <trkpt lat="44.91614" lon="5.49929">
        <ele>1606.1</ele>
        <time>2020-06-27T13:47:28.231Z</time>
      </trkpt>
      <trkpt lat="44.91618" lon="5.49928">
        <ele>1605.9</ele>
        <time>2020-06-27T13:47:32.538Z</time>
      </trkpt>
      <trkpt lat="44.91622" lon="5.49932">
        <ele>1606</ele>
        <time>2020-06-27T13:47:36.851Z</time>
      </trkpt>
      <trkpt lat="44.91624" lon="5.49949">
        <ele>1607</ele>
        <time>2020-06-27T13:47:41.177Z</time>
      </trkpt>
      <trkpt lat="44.91631" lon="5.49951">
        <ele>1608.6</ele>
        <time>2020-06-27T13:47:45.511Z</time>
      </trkpt>
      <trkpt lat="44.91635" lon="5.49961">
        <ele>1610</ele>
        <time>2020-06-27T13:47:49.853Z</time>
      </trkpt>
      <trkpt lat="44.91639" lon="5.49965">
        <ele>1611</ele>
        <time>2020-06-27T13:47:54.201Z</time>
      </trkpt>
      <trkpt lat="44.91641" lon="5.49967">
        <ele>1611.6</ele>
        <time>2020-06-27T13:47:58.552Z</time>
      </trkpt>
      <trkpt lat="44.91643" lon="5.49966">
        <ele>1611.9</ele>
        <time>2020-06-27T13:48:02.905Z</time>
      </trkpt>
      <trkpt lat="44.91645" lon="5.49945">
        <ele>1611.1</ele>
        <time>2020-06-27T13:48:07.273Z</time>
      </trkpt>
      <trkpt lat="44.91648" lon="5.49943">
        <ele>1611.6</ele>
        <time>2020-06-27T13:48:11.645Z</time>
      </trkpt>
      <trkpt lat="44.91653" lon="5.49947">
        <ele>1612.8</ele>
        <time>2020-06-27T13:48:16.023Z</time>
      </trkpt>
      <trkpt lat="44.91656" lon="5.49956">
        <ele>1614</ele>
        <time>2020-06-27T13:48:20.410Z</time>
      </trkpt>
      <trkpt lat="44.91662" lon="5.49961">
        <ele>1615.5</ele>
        <time>2020-06-27T13:48:24.804Z</time>
      </trkpt>
      <trkpt lat="44.91663" lon="5.49965">
        <ele>1615.9</ele>
        <time>2020-06-27T13:48:29.201Z</time>
      </trkpt>
      <trkpt lat="44.91674" lon="5.49969">
        <ele>1618.4</ele>
        <time>2020-06-27T13:48:33.611Z</time>
      </trkpt>
      <trkpt lat="44.91678" lon="5.49977">
        <ele>1619.6</ele>
        <time>2020-06-27T13:48:38.028Z</time>
      </trkpt>
      <trkpt lat="44.91683" lon="5.49981">
        <ele>1620.8</ele>
        <time>2020-06-27T13:48:42.451Z</time>
      </trkpt>
      <trkpt lat="44.91688" lon="5.49998">
        <ele>1622.6</ele>
        <time>2020-06-27T13:48:46.889Z</time>
      </trkpt>
      <trkpt lat="44.91706" lon="5.50017">
        <ele>1627.2</ele>
        <time>2020-06-27T13:48:51.351Z</time>
      </trkpt>
      <trkpt lat="44.91715" lon="5.50037">
        <ele>1629.1</ele>
        <time>2020-06-27T13:48:55.831Z</time>
      </trkpt>
      <trkpt lat="44.91726" lon="5.50045">
        <ele>1630.6</ele>
        <time>2020-06-27T13:49:00.325Z</time>
      </trkpt>
      <trkpt lat="44.91729" lon="5.50045">
        <ele>1630.9</ele>
        <time>2020-06-27T13:49:04.822Z</time>
      </trkpt>
      <trkpt lat="44.91732" lon="5.50037">
        <ele>1630.8</ele>
        <time>2020-06-27T13:49:09.326Z</time>
      </trkpt>
      <trkpt lat="44.91732" lon="5.50025">
        <ele>1630.2</ele>
        <time>2020-06-27T13:49:13.840Z</time>
      </trkpt>
      <trkpt lat="44.91736" lon="5.50016">
        <ele>1630.2</ele>
        <time>2020-06-27T13:49:18.362Z</time>
      </trkpt>
      <trkpt lat="44.91739" lon="5.50013">
        <ele>1630.3</ele>
        <time>2020-06-27T13:49:22.888Z</time>
      </trkpt>
      <trkpt lat="44.91751" lon="5.50019">
        <ele>1631.7</ele>
        <time>2020-06-27T13:49:27.427Z</time>
      </trkpt>
      <trkpt lat="44.91756" lon="5.50026">
        <ele>1632.6</ele>
        <time>2020-06-27T13:49:31.974Z</time>
      </trkpt>
      <trkpt lat="44.91761" lon="5.50027">
        <ele>1633.1</ele>
        <time>2020-06-27T13:49:36.527Z</time>
      </trkpt>
      <trkpt lat="44.91765" lon="5.50029">
        <ele>1633.6</ele>
        <time>2020-06-27T13:49:41.084Z</time>
      </trkpt>
      <trkpt lat="44.9177" lon="5.50039">
        <ele>1634.5</ele>
        <time>2020-06-27T13:49:45.650Z</time>
      </trkpt>
      <trkpt lat="44.91772" lon="5.5004">
        <ele>1634.8</ele>
        <time>2020-06-27T13:49:50.219Z</time>
      </trkpt>
      <trkpt lat="44.91774" lon="5.50045">
        <ele>1635.2</ele>
        <time>2020-06-27T13:49:54.792Z</time>
      </trkpt>
      <trkpt lat="44.9179" lon="5.50063">
        <ele>1637.7</ele>
        <time>2020-06-27T13:49:59.387Z</time>
      </trkpt>
      <trkpt lat="44.91798" lon="5.50064">
        <ele>1638.5</ele>
        <time>2020-06-27T13:50:03.991Z</time>
      </trkpt>
      <trkpt lat="44.91812" lon="5.50076">
        <ele>1640.4</ele>
        <time>2020-06-27T13:50:08.613Z</time>
      </trkpt>
      <trkpt lat="44.91819" lon="5.50076">
        <ele>1641.1</ele>
        <time>2020-06-27T13:50:13.243Z</time>
      </trkpt>
      <trkpt lat="44.91829" lon="5.50083">
        <ele>1642.6</ele>
        <time>2020-06-27T13:50:17.884Z</time>
      </trkpt>
      <trkpt lat="44.9184" lon="5.50097">
        <ele>1644.2</ele>
        <time>2020-06-27T13:50:22.541Z</time>
      </trkpt>
      <trkpt lat="44.9185" lon="5.50124">
        <ele>1646.5</ele>
        <time>2020-06-27T13:50:27.222Z</time>
      </trkpt>
      <trkpt lat="44.91863" lon="5.50142">
        <ele>1648.3</ele>
        <time>2020-06-27T13:50:31.923Z</time>
      </trkpt>
      <trkpt lat="44.91871" lon="5.50156">
        <ele>1649.3</ele>
        <time>2020-06-27T13:50:36.638Z</time>
      </trkpt>
      <trkpt lat="44.91883" lon="5.50162">
        <ele>1650</ele>
        <time>2020-06-27T13:50:41.367Z</time>
      </trkpt>
      <trkpt lat="44.91893" lon="5.50163">
        <ele>1650.4</ele>
        <time>2020-06-27T13:50:46.107Z</time>
      </trkpt>
      <trkpt lat="44.91902" lon="5.50171">
        <ele>1650.9</ele>
        <time>2020-06-27T13:50:50.859Z</time>
      </trkpt>
      <trkpt lat="44.91913" lon="5.50174">
        <ele>1651.4</ele>
        <time>2020-06-27T13:50:55.622Z</time>
      </trkpt>
      <trkpt lat="44.91925" lon="5.50173">
        <ele>1652.2</ele>
        <time>2020-06-27T13:51:00.398Z</time>
      </trkpt>
      <trkpt lat="44.91947" lon="5.50182">
        <ele>1653.7</ele>
        <time>2020-06-27T13:51:05.199Z</time>
      </trkpt>
      <trkpt lat="44.91965" lon="5.50183">
        <ele>1654.7</ele>
        <time>2020-06-27T13:51:10.020Z</time>
      </trkpt>
      <trkpt lat="44.91974" lon="5.50186">
        <ele>1655</ele>
        <time>2020-06-27T13:51:14.851Z</time>
      </trkpt>
      <trkpt lat="44.91984" lon="5.50184">
        <ele>1655.4</ele>
        <time>2020-06-27T13:51:19.693Z</time>
      </trkpt>
      <trkpt lat="44.91997" lon="5.50189">
        <ele>1655.8</ele>
        <time>2020-06-27T13:51:24.550Z</time>
      </trkpt>
      <trkpt lat="44.92011" lon="5.50188">
        <ele>1656.3</ele>
        <time>2020-06-27T13:51:29.422Z</time>
      </trkpt>
      <trkpt lat="44.92013" lon="5.50187">
        <ele>1656.4</ele>
        <time>2020-06-27T13:51:34.297Z</time>
      </trkpt>
      <trkpt lat="44.92016" lon="5.5019">
        <ele>1656.4</ele>
        <time>2020-06-27T13:51:39.175Z</time>
      </trkpt>
      <trkpt lat="44.92018" lon="5.5019">
        <ele>1656.5</ele>
        <time>2020-06-27T13:51:44.056Z</time>
      </trkpt>
      <trkpt lat="44.92026" lon="5.50188">
        <ele>1656.8</ele>
        <time>2020-06-27T13:51:48.946Z</time>
      </trkpt>
      <trkpt lat="44.9205" lon="5.50196">
        <ele>1657.2</ele>
        <time>2020-06-27T13:51:53.863Z</time>
      </trkpt>
      <trkpt lat="44.92065" lon="5.50196">
        <ele>1657.2</ele>
        <time>2020-06-27T13:51:58.796Z</time>
      </trkpt>
      <trkpt lat="44.92071" lon="5.50194">
        <ele>1657.3</ele>
        <time>2020-06-27T13:52:03.735Z</time>
      </trkpt>
      <trkpt lat="44.92075" lon="5.50196">
        <ele>1657.2</ele>
        <time>2020-06-27T13:52:08.678Z</time>
      </trkpt>
      <trkpt lat="44.92083" lon="5.50192">
        <ele>1657.3</ele>
        <time>2020-06-27T13:52:13.631Z</time>
      </trkpt>
      <trkpt lat="44.92093" lon="5.50197">
        <ele>1657.2</ele>
        <time>2020-06-27T13:52:18.595Z</time>
      </trkpt>
      <trkpt lat="44.92095" lon="5.502">
        <ele>1657.2</ele>
        <time>2020-06-27T13:52:23.562Z</time>
      </trkpt>
      <trkpt lat="44.92098" lon="5.50201">
        <ele>1657.2</ele>
        <time>2020-06-27T13:52:28.533Z</time>
      </trkpt>
      <trkpt lat="44.921" lon="5.50205">
        <ele>1657.1</ele>
        <time>2020-06-27T13:52:33.508Z</time>
      </trkpt>
      <trkpt lat="44.92107" lon="5.50208">
        <ele>1657.1</ele>
        <time>2020-06-27T13:52:38.490Z</time>
      </trkpt>
      <trkpt lat="44.92126" lon="5.50213">
        <ele>1657.2</ele>
        <time>2020-06-27T13:52:43.493Z</time>
      </trkpt>
      <trkpt lat="44.92131" lon="5.50212">
        <ele>1657.5</ele>
        <time>2020-06-27T13:52:48.502Z</time>
      </trkpt>
      <trkpt lat="44.92141" lon="5.50207">
        <ele>1658.1</ele>
        <time>2020-06-27T13:52:53.522Z</time>
      </trkpt>
      <trkpt lat="44.92145" lon="5.50209">
        <ele>1658.2</ele>
        <time>2020-06-27T13:52:58.546Z</time>
      </trkpt>
      <trkpt lat="44.92151" lon="5.50208">
        <ele>1658.5</ele>
        <time>2020-06-27T13:53:03.577Z</time>
      </trkpt>
      <trkpt lat="44.92157" lon="5.5021">
        <ele>1658.8</ele>
        <time>2020-06-27T13:53:08.615Z</time>
      </trkpt>
      <trkpt lat="44.92165" lon="5.50207">
        <ele>1659.2</ele>
        <time>2020-06-27T13:53:13.662Z</time>
      </trkpt>
      <trkpt lat="44.92171" lon="5.50204">
        <ele>1659.6</ele>
        <time>2020-06-27T13:53:18.716Z</time>
      </trkpt>
      <trkpt lat="44.92181" lon="5.50207">
        <ele>1660</ele>
        <time>2020-06-27T13:53:23.781Z</time>
      </trkpt>
      <trkpt lat="44.92195" lon="5.50205">
        <ele>1660.7</ele>
        <time>2020-06-27T13:53:28.861Z</time>
      </trkpt>
      <trkpt lat="44.92206" lon="5.502">
        <ele>1661.4</ele>
        <time>2020-06-27T13:53:33.954Z</time>
      </trkpt>
      <trkpt lat="44.92214" lon="5.50199">
        <ele>1661.8</ele>
        <time>2020-06-27T13:53:39.056Z</time>
      </trkpt>
      <trkpt lat="44.92231" lon="5.50201">
        <ele>1662.5</ele>
        <time>2020-06-27T13:53:44.176Z</time>
      </trkpt>
      <trkpt lat="44.9224" lon="5.50196">
        <ele>1663.1</ele>
        <time>2020-06-27T13:53:49.307Z</time>
      </trkpt>
      <trkpt lat="44.92252" lon="5.50196">
        <ele>1663.7</ele>
        <time>2020-06-27T13:53:54.451Z</time>
      </trkpt>
      <trkpt lat="44.92258" lon="5.50188">
        <ele>1664.1</ele>
        <time>2020-06-27T13:53:59.604Z</time>
      </trkpt>
      <trkpt lat="44.92261" lon="5.50187">
        <ele>1664.3</ele>
        <time>2020-06-27T13:54:04.761Z</time>
      </trkpt>
      <trkpt lat="44.92266" lon="5.50182">
        <ele>1664.3</ele>
        <time>2020-06-27T13:54:09.924Z</time>
      </trkpt>
      <trkpt lat="44.92272" lon="5.5018">
        <ele>1664.3</ele>
        <time>2020-06-27T13:54:15.094Z</time>
      </trkpt>
      <trkpt lat="44.92279" lon="5.5016">
        <ele>1664.2</ele>
        <time>2020-06-27T13:54:20.281Z</time>
      </trkpt>
      <trkpt lat="44.92288" lon="5.50141">
        <ele>1664.1</ele>
        <time>2020-06-27T13:54:25.486Z</time>
      </trkpt>
      <trkpt lat="44.9229" lon="5.50133">
        <ele>1664</ele>
        <time>2020-06-27T13:54:30.697Z</time>
      </trkpt>
      <trkpt lat="44.92298" lon="5.50112">
        <ele>1663.4</ele>
        <time>2020-06-27T13:54:35.927Z</time>
      </trkpt>
      <trkpt lat="44.92302" lon="5.50107">
        <ele>1663.2</ele>
        <time>2020-06-27T13:54:41.163Z</time>
      </trkpt>
      <trkpt lat="44.92308" lon="5.50095">
        <ele>1662.9</ele>
        <time>2020-06-27T13:54:46.410Z</time>
      </trkpt>
      <trkpt lat="44.92308" lon="5.50087">
        <ele>1662.7</ele>
        <time>2020-06-27T13:54:51.663Z</time>
      </trkpt>
      <trkpt lat="44.92313" lon="5.50074">
        <ele>1662.3</ele>
        <time>2020-06-27T13:54:56.928Z</time>
      </trkpt>
      <trkpt lat="44.92319" lon="5.5007">
        <ele>1662.2</ele>
        <time>2020-06-27T13:55:02.200Z</time>
      </trkpt>
      <trkpt lat="44.92324" lon="5.50065">
        <ele>1662.2</ele>
        <time>2020-06-27T13:55:07.479Z</time>
      </trkpt>
      <trkpt lat="44.92325" lon="5.50056">
        <ele>1662.1</ele>
        <time>2020-06-27T13:55:12.765Z</time>
      </trkpt>
      <trkpt lat="44.92328" lon="5.50051">
        <ele>1662</ele>
        <time>2020-06-27T13:55:18.056Z</time>
      </trkpt>
      <trkpt lat="44.92328" lon="5.50046">
        <ele>1661.7</ele>
        <time>2020-06-27T13:55:23.351Z</time>
      </trkpt>
      <trkpt lat="44.92333" lon="5.50026">
        <ele>1660.3</ele>
        <time>2020-06-27T13:55:28.662Z</time>
      </trkpt>
      <trkpt lat="44.92331" lon="5.50014">
        <ele>1659.4</ele>
        <time>2020-06-27T13:55:33.983Z</time>
      </trkpt>
      <trkpt lat="44.92333" lon="5.50008">
        <ele>1658.9</ele>
        <time>2020-06-27T13:55:39.309Z</time>
      </trkpt>
      <trkpt lat="44.92339" lon="5.50003">
        <ele>1658.3</ele>
        <time>2020-06-27T13:55:44.642Z</time>
      </trkpt>
      <trkpt lat="44.92345" lon="5.4999">
        <ele>1656.9</ele>
        <time>2020-06-27T13:55:49.987Z</time>
      </trkpt>
      <trkpt lat="44.92351" lon="5.49984">
        <ele>1656.2</ele>
        <time>2020-06-27T13:55:55.341Z</time>
      </trkpt>
      <trkpt lat="44.92359" lon="5.49977">
        <ele>1655.3</ele>
        <time>2020-06-27T13:56:00.705Z</time>
      </trkpt>
      <trkpt lat="44.92364" lon="5.49978">
        <ele>1655.3</ele>
        <time>2020-06-27T13:56:06.074Z</time>
      </trkpt>
      <trkpt lat="44.92371" lon="5.49974">
        <ele>1654.8</ele>
        <time>2020-06-27T13:56:11.451Z</time>
      </trkpt>
      <trkpt lat="44.9237" lon="5.49965">
        <ele>1653.9</ele>
        <time>2020-06-27T13:56:16.835Z</time>
      </trkpt>
      <trkpt lat="44.92374" lon="5.49958">
        <ele>1652.8</ele>
        <time>2020-06-27T13:56:22.226Z</time>
      </trkpt>
      <trkpt lat="44.92377" lon="5.49956">
        <ele>1652.4</ele>
        <time>2020-06-27T13:56:27.621Z</time>
      </trkpt>
      <trkpt lat="44.92375" lon="5.49947">
        <ele>1651.3</ele>
        <time>2020-06-27T13:56:33.023Z</time>
      </trkpt>
      <trkpt lat="44.92378" lon="5.49942">
        <ele>1650.5</ele>
        <time>2020-06-27T13:56:38.430Z</time>
      </trkpt>
      <trkpt lat="44.92378" lon="5.49936">
        <ele>1649.7</ele>
        <time>2020-06-27T13:56:43.841Z</time>
      </trkpt>
      <trkpt lat="44.92381" lon="5.49926">
        <ele>1648.3</ele>
        <time>2020-06-27T13:56:49.261Z</time>
      </trkpt>
      <trkpt lat="44.92388" lon="5.49913">
        <ele>1646.2</ele>
        <time>2020-06-27T13:56:54.693Z</time>
      </trkpt>
      <trkpt lat="44.92398" lon="5.49898">
        <ele>1643.8</ele>
        <time>2020-06-27T13:57:00.141Z</time>
      </trkpt>
      <trkpt lat="44.924" lon="5.49889">
        <ele>1642.5</ele>
        <time>2020-06-27T13:57:05.596Z</time>
      </trkpt>
      <trkpt lat="44.92403" lon="5.49884">
        <ele>1641.7</ele>
        <time>2020-06-27T13:57:11.056Z</time>
      </trkpt>
      <trkpt lat="44.92396" lon="5.49854">
        <ele>1638.4</ele>
        <time>2020-06-27T13:57:16.541Z</time>
      </trkpt>
      <trkpt lat="44.92397" lon="5.49839">
        <ele>1636.6</ele>
        <time>2020-06-27T13:57:22.037Z</time>
      </trkpt>
      <trkpt lat="44.92394" lon="5.49823">
        <ele>1634.8</ele>
        <time>2020-06-27T13:57:27.546Z</time>
      </trkpt>
      <trkpt lat="44.92403" lon="5.49806">
        <ele>1632</ele>
        <time>2020-06-27T13:57:33.071Z</time>
      </trkpt>
      <trkpt lat="44.92405" lon="5.49796">
        <ele>1630.5</ele>
        <time>2020-06-27T13:57:38.604Z</time>
      </trkpt>
      <trkpt lat="44.92404" lon="5.49787">
        <ele>1629</ele>
        <time>2020-06-27T13:57:44.144Z</time>
      </trkpt>
      <trkpt lat="44.92406" lon="5.49776">
        <ele>1627</ele>
        <time>2020-06-27T13:57:49.693Z</time>
      </trkpt>
      <trkpt lat="44.92412" lon="5.49762">
        <ele>1624.3</ele>
        <time>2020-06-27T13:57:55.254Z</time>
      </trkpt>
      <trkpt lat="44.92415" lon="5.49741">
        <ele>1621</ele>
        <time>2020-06-27T13:58:00.832Z</time>
      </trkpt>
      <trkpt lat="44.92431" lon="5.49712">
        <ele>1616.2</ele>
        <time>2020-06-27T13:58:06.438Z</time>
      </trkpt>
      <trkpt lat="44.92427" lon="5.49692">
        <ele>1613.2</ele>
        <time>2020-06-27T13:58:12.060Z</time>
      </trkpt>
      <trkpt lat="44.92431" lon="5.49689">
        <ele>1612.6</ele>
        <time>2020-06-27T13:58:17.687Z</time>
      </trkpt>
      <trkpt lat="44.92443" lon="5.49687">
        <ele>1612.1</ele>
        <time>2020-06-27T13:58:23.327Z</time>
      </trkpt>
      <trkpt lat="44.92445" lon="5.49685">
        <ele>1611.7</ele>
        <time>2020-06-27T13:58:28.970Z</time>
      </trkpt>
      <trkpt lat="44.92445" lon="5.49679">
        <ele>1610.9</ele>
        <time>2020-06-27T13:58:34.617Z</time>
      </trkpt>
      <trkpt lat="44.92452" lon="5.49681">
        <ele>1611</ele>
        <time>2020-06-27T13:58:40.272Z</time>
      </trkpt>
      <trkpt lat="44.92459" lon="5.4968">
        <ele>1610.4</ele>
        <time>2020-06-27T13:58:45.935Z</time>
      </trkpt>
      <trkpt lat="44.92461" lon="5.49677">
        <ele>1609.5</ele>
        <time>2020-06-27T13:58:51.601Z</time>
      </trkpt>
      <trkpt lat="44.92466" lon="5.49676">
        <ele>1608.4</ele>
        <time>2020-06-27T13:58:57.272Z</time>
      </trkpt>
      <trkpt lat="44.92467" lon="5.49669">
        <ele>1607.2</ele>
        <time>2020-06-27T13:59:02.948Z</time>
      </trkpt>
      <trkpt lat="44.92483" lon="5.49651">
        <ele>1602.3</ele>
        <time>2020-06-27T13:59:08.647Z</time>
      </trkpt>
      <trkpt lat="44.92483" lon="5.49625">
        <ele>1600.3</ele>
        <time>2020-06-27T13:59:14.366Z</time>
      </trkpt>
      <trkpt lat="44.92491" lon="5.4961">
        <ele>1597.8</ele>
        <time>2020-06-27T13:59:20.099Z</time>
      </trkpt>
      <trkpt lat="44.92494" lon="5.49608">
        <ele>1597.3</ele>
        <time>2020-06-27T13:59:25.836Z</time>
      </trkpt>
      <trkpt lat="44.92503" lon="5.49609">
        <ele>1596.4</ele>
        <time>2020-06-27T13:59:31.583Z</time>
      </trkpt>
      <trkpt lat="44.9251" lon="5.49606">
        <ele>1595.3</ele>
        <time>2020-06-27T13:59:37.337Z</time>
      </trkpt>
      <trkpt lat="44.92511" lon="5.496">
        <ele>1595</ele>
        <time>2020-06-27T13:59:43.096Z</time>
      </trkpt>
      <trkpt lat="44.92518" lon="5.49585">
        <ele>1595</ele>
        <time>2020-06-27T13:59:48.869Z</time>
      </trkpt>
      <trkpt lat="44.92522" lon="5.4958">
        <ele>1595</ele>
        <time>2020-06-27T13:59:54.647Z</time>
      </trkpt>
      <trkpt lat="44.92528" lon="5.49579">
        <ele>1595</ele>
        <time>2020-06-27T14:00:00.432Z</time>
      </trkpt>
      <trkpt lat="44.92534" lon="5.49575">
        <ele>1595</ele>
        <time>2020-06-27T14:00:06.224Z</time>
      </trkpt>
      <trkpt lat="44.9254" lon="5.49575">
        <ele>1595</ele>
        <time>2020-06-27T14:00:12.023Z</time>
      </trkpt>
      <trkpt lat="44.92547" lon="5.49572">
        <ele>1594.8</ele>
        <time>2020-06-27T14:00:17.830Z</time>
      </trkpt>
      <trkpt lat="44.92561" lon="5.49572">
        <ele>1594.3</ele>
        <time>2020-06-27T14:00:23.652Z</time>
      </trkpt>
      <trkpt lat="44.92564" lon="5.49569">
        <ele>1594</ele>
        <time>2020-06-27T14:00:29.478Z</time>
      </trkpt>
      <trkpt lat="44.92579" lon="5.49569">
        <ele>1592.9</ele>
        <time>2020-06-27T14:00:35.320Z</time>
      </trkpt>
      <trkpt lat="44.92595" lon="5.49585">
        <ele>1592.3</ele>
        <time>2020-06-27T14:00:41.183Z</time>
      </trkpt>
      <trkpt lat="44.926" lon="5.49583">
        <ele>1591.9</ele>
        <time>2020-06-27T14:00:47.052Z</time>
      </trkpt>
      <trkpt lat="44.92603" lon="5.49586">
        <ele>1591.8</ele>
        <time>2020-06-27T14:00:52.926Z</time>
      </trkpt>
      <trkpt lat="44.92618" lon="5.49587">
        <ele>1590.8</ele>
        <time>2020-06-27T14:00:58.816Z</time>
      </trkpt>
      <trkpt lat="44.92647" lon="5.49583">
        <ele>1593</ele>
        <time>2020-06-27T14:01:04.737Z</time>
      </trkpt>
      <trkpt lat="44.92653" lon="5.49584">
        <ele>1593.7</ele>
        <time>2020-06-27T14:01:10.665Z</time>
      </trkpt>
      <trkpt lat="44.92657" lon="5.49588">
        <ele>1594.4</ele>
        <time>2020-06-27T14:01:16.599Z</time>
      </trkpt>
      <trkpt lat="44.92666" lon="5.4959">
        <ele>1595.3</ele>
        <time>2020-06-27T14:01:22.543Z</time>
      </trkpt>
      <trkpt lat="44.92671" lon="5.49589">
        <ele>1595.2</ele>
        <time>2020-06-27T14:01:28.492Z</time>
      </trkpt>
      <trkpt lat="44.92683" lon="5.49582">
        <ele>1594.3</ele>
        <time>2020-06-27T14:01:34.456Z</time>
      </trkpt>
      <trkpt lat="44.92692" lon="5.4958">
        <ele>1594.1</ele>
        <time>2020-06-27T14:01:40.429Z</time>
      </trkpt>
      <trkpt lat="44.92698" lon="5.49569">
        <ele>1592.6</ele>
        <time>2020-06-27T14:01:46.413Z</time>
      </trkpt>
      <trkpt lat="44.92709" lon="5.49565">
        <ele>1592.3</ele>
        <time>2020-06-27T14:01:52.410Z</time>
      </trkpt>
      <trkpt lat="44.92715" lon="5.49567">
        <ele>1593</ele>
        <time>2020-06-27T14:01:58.413Z</time>
      </trkpt>
      <trkpt lat="44.92724" lon="5.49565">
        <ele>1593.3</ele>
        <time>2020-06-27T14:02:04.426Z</time>
      </trkpt>
      <trkpt lat="44.92736" lon="5.49571">
        <ele>1594.9</ele>
        <time>2020-06-27T14:02:10.453Z</time>
      </trkpt>
      <trkpt lat="44.9275" lon="5.49571">
        <ele>1595.6</ele>
        <time>2020-06-27T14:02:16.495Z</time>
      </trkpt>
      <trkpt lat="44.92761" lon="5.49577">
        <ele>1597.1</ele>
        <time>2020-06-27T14:02:22.550Z</time>
      </trkpt>
      <trkpt lat="44.92764" lon="5.49581">
        <ele>1597.9</ele>
        <time>2020-06-27T14:02:28.610Z</time>
      </trkpt>
      <trkpt lat="44.92771" lon="5.49583">
        <ele>1598.6</ele>
        <time>2020-06-27T14:02:34.677Z</time>
      </trkpt>
      <trkpt lat="44.92776" lon="5.49588">
        <ele>1599.7</ele>
        <time>2020-06-27T14:02:40.751Z</time>
      </trkpt>
      <trkpt lat="44.92781" lon="5.49579">
        <ele>1598.4</ele>
        <time>2020-06-27T14:02:46.834Z</time>
      </trkpt>
      <trkpt lat="44.92788" lon="5.49572">
        <ele>1597.6</ele>
        <time>2020-06-27T14:02:52.927Z</time>
      </trkpt>
      <trkpt lat="44.92797" lon="5.49572">
        <ele>1597.7</ele>
        <time>2020-06-27T14:02:59.029Z</time>
      </trkpt>
      <trkpt lat="44.92805" lon="5.49571">
        <ele>1597.5</ele>
        <time>2020-06-27T14:03:05.140Z</time>
      </trkpt>
      <trkpt lat="44.92811" lon="5.49568">
        <ele>1596.9</ele>
        <time>2020-06-27T14:03:11.258Z</time>
      </trkpt>
      <trkpt lat="44.92823" lon="5.49568">
        <ele>1596.5</ele>
        <time>2020-06-27T14:03:17.389Z</time>
      </trkpt>
      <trkpt lat="44.92828" lon="5.49564">
        <ele>1595.5</ele>
        <time>2020-06-27T14:03:23.526Z</time>
      </trkpt>
      <trkpt lat="44.92831" lon="5.49564">
        <ele>1595.4</ele>
        <time>2020-06-27T14:03:29.667Z</time>
      </trkpt>
      <trkpt lat="44.92848" lon="5.49572">
        <ele>1596.4</ele>
        <time>2020-06-27T14:03:35.827Z</time>
      </trkpt>
      <trkpt lat="44.92851" lon="5.4957">
        <ele>1595.9</ele>
        <time>2020-06-27T14:03:41.991Z</time>
      </trkpt>
      <trkpt lat="44.92861" lon="5.49573">
        <ele>1596.2</ele>
        <time>2020-06-27T14:03:48.166Z</time>
      </trkpt>
      <trkpt lat="44.92867" lon="5.49577">
        <ele>1596.8</ele>
        <time>2020-06-27T14:03:54.348Z</time>
      </trkpt>
      <trkpt lat="44.92885" lon="5.49599">
        <ele>1599.9</ele>
        <time>2020-06-27T14:04:00.556Z</time>
      </trkpt>
      <trkpt lat="44.92894" lon="5.49604">
        <ele>1600.1</ele>
        <time>2020-06-27T14:04:06.774Z</time>
      </trkpt>
      <trkpt lat="44.92899" lon="5.49613">
        <ele>1601.4</ele>
        <time>2020-06-27T14:04:13.001Z</time>
      </trkpt>
      <trkpt lat="44.92906" lon="5.49613">
        <ele>1600.8</ele>
        <time>2020-06-27T14:04:19.236Z</time>
      </trkpt>
      <trkpt lat="44.92913" lon="5.49618">
        <ele>1601.1</ele>
        <time>2020-06-27T14:04:25.479Z</time>
      </trkpt>
      <trkpt lat="44.92929" lon="5.49646">
        <ele>1604.2</ele>
        <time>2020-06-27T14:04:31.750Z</time>
      </trkpt>
      <trkpt lat="44.92933" lon="5.49656">
        <ele>1605</ele>
        <time>2020-06-27T14:04:38.030Z</time>
      </trkpt>
      <trkpt lat="44.92939" lon="5.49667">
        <ele>1605.8</ele>
        <time>2020-06-27T14:04:44.321Z</time>
      </trkpt>
      <trkpt lat="44.92948" lon="5.49676">
        <ele>1606</ele>
        <time>2020-06-27T14:04:50.623Z</time>
      </trkpt>
      <trkpt lat="44.92954" lon="5.49685">
        <ele>1606.5</ele>
        <time>2020-06-27T14:04:56.935Z</time>
      </trkpt>
      <trkpt lat="44.92967" lon="5.49697">
        <ele>1607.2</ele>
        <time>2020-06-27T14:05:03.264Z</time>
      </trkpt>
      <trkpt lat="44.92983" lon="5.49703">
        <ele>1607.1</ele>
        <time>2020-06-27T14:05:09.611Z</time>
      </trkpt>
      <trkpt lat="44.92995" lon="5.49723">
        <ele>1608.9</ele>
        <time>2020-06-27T14:05:15.978Z</time>
      </trkpt>
      <trkpt lat="44.93007" lon="5.49731">
        <ele>1609.2</ele>
        <time>2020-06-27T14:05:22.360Z</time>
      </trkpt>
      <trkpt lat="44.93011" lon="5.4974">
        <ele>1609.9</ele>
        <time>2020-06-27T14:05:28.749Z</time>
      </trkpt>
      <trkpt lat="44.93017" lon="5.49746">
        <ele>1610.3</ele>
        <time>2020-06-27T14:05:35.147Z</time>
      </trkpt>
      <trkpt lat="44.93022" lon="5.49754">
        <ele>1610.9</ele>
        <time>2020-06-27T14:05:41.554Z</time>
      </trkpt>
      <trkpt lat="44.93036" lon="5.49761">
        <ele>1611</ele>
        <time>2020-06-27T14:05:47.976Z</time>
      </trkpt>
      <trkpt lat="44.93054" lon="5.49779">
        <ele>1611.6</ele>
        <time>2020-06-27T14:05:54.422Z</time>
      </trkpt>
      <trkpt lat="44.93059" lon="5.49778">
        <ele>1611.1</ele>
        <time>2020-06-27T14:06:00.874Z</time>
      </trkpt>
      <trkpt lat="44.93062" lon="5.4978">
        <ele>1611</ele>
        <time>2020-06-27T14:06:07.329Z</time>
      </trkpt>
      <trkpt lat="44.93066" lon="5.49778">
        <ele>1610.5</ele>
        <time>2020-06-27T14:06:13.789Z</time>
      </trkpt>
      <trkpt lat="44.93067" lon="5.49779">
        <ele>1610.5</ele>
        <time>2020-06-27T14:06:20.251Z</time>
      </trkpt>
      <trkpt lat="44.93073" lon="5.49791">
        <ele>1611.3</ele>
        <time>2020-06-27T14:06:26.723Z</time>
      </trkpt>
      <trkpt lat="44.93077" lon="5.49805">
        <ele>1612.1</ele>
        <time>2020-06-27T14:06:33.207Z</time>
      </trkpt>
      <trkpt lat="44.93089" lon="5.49825">
        <ele>1611.5</ele>
        <time>2020-06-27T14:06:39.712Z</time>
      </trkpt>
      <trkpt lat="44.93098" lon="5.49831">
        <ele>1610.9</ele>
        <time>2020-06-27T14:06:46.228Z</time>
      </trkpt>
      <trkpt lat="44.93104" lon="5.49832">
        <ele>1610.4</ele>
        <time>2020-06-27T14:06:52.751Z</time>
      </trkpt>
      <trkpt lat="44.93111" lon="5.49835">
        <ele>1609.9</ele>
        <time>2020-06-27T14:06:59.281Z</time>
      </trkpt>
      <trkpt lat="44.93113" lon="5.49834">
        <ele>1609.7</ele>
        <time>2020-06-27T14:07:05.813Z</time>
      </trkpt>
      <trkpt lat="44.9312" lon="5.49836">
        <ele>1609.2</ele>
        <time>2020-06-27T14:07:12.353Z</time>
      </trkpt>
      <trkpt lat="44.93125" lon="5.49834">
        <ele>1608.9</ele>
        <time>2020-06-27T14:07:18.898Z</time>
      </trkpt>
      <trkpt lat="44.93127" lon="5.49834">
        <ele>1609</ele>
        <time>2020-06-27T14:07:25.446Z</time>
      </trkpt>
      <trkpt lat="44.9314" lon="5.49862">
        <ele>1610.6</ele>
        <time>2020-06-27T14:07:32.020Z</time>
      </trkpt>
      <trkpt lat="44.93145" lon="5.49885">
        <ele>1611.6</ele>
        <time>2020-06-27T14:07:38.612Z</time>
      </trkpt>
      <trkpt lat="44.93152" lon="5.49898">
        <ele>1612.9</ele>
        <time>2020-06-27T14:07:45.217Z</time>
      </trkpt>
      <trkpt lat="44.93154" lon="5.49909">
        <ele>1613.7</ele>
        <time>2020-06-27T14:07:51.831Z</time>
      </trkpt>
      <trkpt lat="44.93158" lon="5.49915">
        <ele>1614.4</ele>
        <time>2020-06-27T14:07:58.451Z</time>
      </trkpt>
      <trkpt lat="44.93161" lon="5.49916">
        <ele>1614.6</ele>
        <time>2020-06-27T14:08:05.074Z</time>
      </trkpt>
      <trkpt lat="44.93166" lon="5.49913">
        <ele>1614.8</ele>
        <time>2020-06-27T14:08:11.703Z</time>
      </trkpt>
      <trkpt lat="44.93168" lon="5.49916">
        <ele>1615.1</ele>
        <time>2020-06-27T14:08:18.335Z</time>
      </trkpt>
      <trkpt lat="44.93174" lon="5.49928">
        <ele>1616.3</ele>
        <time>2020-06-27T14:08:24.978Z</time>
      </trkpt>
      <trkpt lat="44.93183" lon="5.49938">
        <ele>1617.5</ele>
        <time>2020-06-27T14:08:31.633Z</time>
      </trkpt>
      <trkpt lat="44.93195" lon="5.49961">
        <ele>1619.9</ele>
        <time>2020-06-27T14:08:38.311Z</time>
      </trkpt>
      <trkpt lat="44.93199" lon="5.49967">
        <ele>1620.5</ele>
        <time>2020-06-27T14:08:44.995Z</time>
      </trkpt>
      <trkpt lat="44.93203" lon="5.49969">
        <ele>1621.1</ele>
        <time>2020-06-27T14:08:51.683Z</time>
      </trkpt>
      <trkpt lat="44.93206" lon="5.49977">
        <ele>1622.3</ele>
        <time>2020-06-27T14:08:58.379Z</time>
      </trkpt>
      <trkpt lat="44.93215" lon="5.49981">
        <ele>1622.4</ele>
        <time>2020-06-27T14:09:05.084Z</time>
      </trkpt>
      <trkpt lat="44.93218" lon="5.49987">
        <ele>1623</ele>
        <time>2020-06-27T14:09:11.795Z</time>
      </trkpt>
      <trkpt lat="44.93232" lon="5.49994">
        <ele>1623.1</ele>
        <time>2020-06-27T14:09:18.522Z</time>
      </trkpt>
      <trkpt lat="44.93235" lon="5.49995">
        <ele>1623.1</ele>
        <time>2020-06-27T14:09:25.253Z</time>
      </trkpt>
      <trkpt lat="44.93244" lon="5.49993">
        <ele>1622.9</ele>
        <time>2020-06-27T14:09:31.993Z</time>
      </trkpt>
      <trkpt lat="44.93253" lon="5.50002">
        <ele>1623.5</ele>
        <time>2020-06-27T14:09:38.745Z</time>
      </trkpt>
      <trkpt lat="44.93259" lon="5.50001">
        <ele>1623.5</ele>
        <time>2020-06-27T14:09:45.504Z</time>
      </trkpt>
      <trkpt lat="44.93268" lon="5.50005">
        <ele>1623.8</ele>
        <time>2020-06-27T14:09:52.273Z</time>
      </trkpt>
      <trkpt lat="44.93281" lon="5.50015">
        <ele>1624.5</ele>
        <time>2020-06-27T14:09:59.058Z</time>
      </trkpt>
      <trkpt lat="44.93292" lon="5.50009">
        <ele>1623.7</ele>
        <time>2020-06-27T14:10:05.855Z</time>
      </trkpt>
      <trkpt lat="44.93305" lon="5.50007">
        <ele>1620.6</ele>
        <time>2020-06-27T14:10:12.666Z</time>
      </trkpt>
      <trkpt lat="44.93315" lon="5.50017">
        <ele>1619.1</ele>
        <time>2020-06-27T14:10:19.491Z</time>
      </trkpt>
      <trkpt lat="44.93319" lon="5.50018">
        <ele>1618.2</ele>
        <time>2020-06-27T14:10:26.320Z</time>
      </trkpt>
      <trkpt lat="44.93329" lon="5.50014">
        <ele>1615.6</ele>
        <time>2020-06-27T14:10:33.161Z</time>
      </trkpt>
      <trkpt lat="44.93338" lon="5.50022">
        <ele>1614.2</ele>
        <time>2020-06-27T14:10:40.014Z</time>
      </trkpt>
      <trkpt lat="44.93345" lon="5.50023">
        <ele>1612.6</ele>
        <time>2020-06-27T14:10:46.874Z</time>
      </trkpt>
      <trkpt lat="44.93358" lon="5.50018">
        <ele>1612</ele>
        <time>2020-06-27T14:10:53.749Z</time>
      </trkpt>
      <trkpt lat="44.93377" lon="5.50005">
        <ele>1612.3</ele>
        <time>2020-06-27T14:11:00.647Z</time>
      </trkpt>
      <trkpt lat="44.93381" lon="5.50009">
        <ele>1611.9</ele>
        <time>2020-06-27T14:11:07.550Z</time>
      </trkpt>
      <trkpt lat="44.9338" lon="5.50011">
        <ele>1611.7</ele>
        <time>2020-06-27T14:11:14.455Z</time>
      </trkpt>
      <trkpt lat="44.93382" lon="5.50018">
        <ele>1611.1</ele>
        <time>2020-06-27T14:11:21.366Z</time>
      </trkpt>
      <trkpt lat="44.93392" lon="5.50025">
        <ele>1610.4</ele>
        <time>2020-06-27T14:11:28.289Z</time>
      </trkpt>
      <trkpt lat="44.93398" lon="5.50025">
        <ele>1610.4</ele>
        <time>2020-06-27T14:11:35.219Z</time>
      </trkpt>
      <trkpt lat="44.93421" lon="5.50037">
        <ele>1609.3</ele>
        <time>2020-06-27T14:11:42.175Z</time>
      </trkpt>
      <trkpt lat="44.93423" lon="5.50037">
        <ele>1609.3</ele>
        <time>2020-06-27T14:11:49.134Z</time>
      </trkpt>
      <trkpt lat="44.93436" lon="5.50045">
        <ele>1608.5</ele>
        <time>2020-06-27T14:11:56.108Z</time>
      </trkpt>
      <trkpt lat="44.9344" lon="5.50054">
        <ele>1608</ele>
        <time>2020-06-27T14:12:03.090Z</time>
      </trkpt>
      <trkpt lat="44.9344" lon="5.50067">
        <ele>1608.2</ele>
        <time>2020-06-27T14:12:10.082Z</time>
      </trkpt>
      <trkpt lat="44.93442" lon="5.50076">
        <ele>1608.3</ele>
        <time>2020-06-27T14:12:17.081Z</time>
      </trkpt>
      <trkpt lat="44.9345" lon="5.50086">
        <ele>1608.4</ele>
        <time>2020-06-27T14:12:24.091Z</time>
      </trkpt>
      <trkpt lat="44.93457" lon="5.50092">
        <ele>1608.5</ele>
        <time>2020-06-27T14:12:31.110Z</time>
      </trkpt>
      <trkpt lat="44.93461" lon="5.50093">
        <ele>1608.8</ele>
        <time>2020-06-27T14:12:38.134Z</time>
      </trkpt>
      <trkpt lat="44.93465" lon="5.50096">
        <ele>1609.2</ele>
        <time>2020-06-27T14:12:45.163Z</time>
      </trkpt>
      <trkpt lat="44.93471" lon="5.50117">
        <ele>1610</ele>
        <time>2020-06-27T14:12:52.209Z</time>
      </trkpt>
      <trkpt lat="44.93478" lon="5.50129">
        <ele>1610.7</ele>
        <time>2020-06-27T14:12:59.267Z</time>
      </trkpt>
      <trkpt lat="44.93489" lon="5.50139">
        <ele>1611.9</ele>
        <time>2020-06-27T14:13:06.339Z</time>
      </trkpt>
      <trkpt lat="44.93495" lon="5.50138">
        <ele>1612.4</ele>
        <time>2020-06-27T14:13:13.418Z</time>
      </trkpt>
      <trkpt lat="44.93499" lon="5.50142">
        <ele>1612.9</ele>
        <time>2020-06-27T14:13:20.502Z</time>
      </trkpt>
      <trkpt lat="44.93503" lon="5.50148">
        <ele>1613.5</ele>
        <time>2020-06-27T14:13:27.592Z</time>
      </trkpt>
      <trkpt lat="44.93506" lon="5.50158">
        <ele>1614.3</ele>
        <time>2020-06-27T14:13:34.691Z</time>
      </trkpt>
      <trkpt lat="44.9351" lon="5.50156">
        <ele>1614.5</ele>
        <time>2020-06-27T14:13:41.794Z</time>
      </trkpt>
      <trkpt lat="44.93511" lon="5.50158">
        <ele>1614.7</ele>
        <time>2020-06-27T14:13:48.899Z</time>
      </trkpt>
      <trkpt lat="44.93519" lon="5.50178">
        <ele>1616.3</ele>
        <time>2020-06-27T14:13:56.022Z</time>
      </trkpt>
      <trkpt lat="44.93522" lon="5.50179">
        <ele>1616.6</ele>
        <time>2020-06-27T14:14:03.148Z</time>
      </trkpt>
      <trkpt lat="44.93534" lon="5.50175">
        <ele>1617.4</ele>
        <time>2020-06-27T14:14:10.287Z</time>
      </trkpt>
      <trkpt lat="44.9354" lon="5.50175">
        <ele>1617.9</ele>
        <time>2020-06-27T14:14:17.433Z</time>
      </trkpt>
      <trkpt lat="44.93553" lon="5.50184">
        <ele>1620.4</ele>
        <time>2020-06-27T14:14:24.595Z</time>
      </trkpt>
      <trkpt lat="44.93559" lon="5.50183">
        <ele>1621.3</ele>
        <time>2020-06-27T14:14:31.763Z</time>
      </trkpt>
      <trkpt lat="44.93569" lon="5.50171">
        <ele>1622.2</ele>
        <time>2020-06-27T14:14:38.945Z</time>
      </trkpt>
      <trkpt lat="44.93576" lon="5.50169">
        <ele>1623.2</ele>
        <time>2020-06-27T14:14:46.136Z</time>
      </trkpt>
      <trkpt lat="44.93579" lon="5.50167">
        <ele>1623.3</ele>
        <time>2020-06-27T14:14:53.330Z</time>
      </trkpt>
      <trkpt lat="44.93585" lon="5.50132">
        <ele>1619.8</ele>
        <time>2020-06-27T14:15:00.552Z</time>
      </trkpt>
      <trkpt lat="44.93605" lon="5.50078">
        <ele>1620.6</ele>
        <time>2020-06-27T14:15:07.821Z</time>
      </trkpt>
      <trkpt lat="44.93625" lon="5.50049">
        <ele>1618.9</ele>
        <time>2020-06-27T14:15:15.121Z</time>
      </trkpt>
      <trkpt lat="44.93631" lon="5.50031">
        <ele>1618.6</ele>
        <time>2020-06-27T14:15:22.436Z</time>
      </trkpt>
      <trkpt lat="44.9364" lon="5.50022">
        <ele>1618</ele>
        <time>2020-06-27T14:15:29.763Z</time>
      </trkpt>
      <trkpt lat="44.9365" lon="5.49997">
        <ele>1617.4</ele>
        <time>2020-06-27T14:15:37.112Z</time>
      </trkpt>
      <trkpt lat="44.93656" lon="5.49989">
        <ele>1615.9</ele>
        <time>2020-06-27T14:15:44.471Z</time>
      </trkpt>
      <trkpt lat="44.93656" lon="5.4998">
        <ele>1614.8</ele>
        <time>2020-06-27T14:15:51.836Z</time>
      </trkpt>
      <trkpt lat="44.93657" lon="5.49976">
        <ele>1614.2</ele>
        <time>2020-06-27T14:15:59.205Z</time>
      </trkpt>
      <trkpt lat="44.93678" lon="5.49937">
        <ele>1610</ele>
        <time>2020-06-27T14:16:06.612Z</time>
      </trkpt>
      <trkpt lat="44.93677" lon="5.49928">
        <ele>1610.2</ele>
        <time>2020-06-27T14:16:14.026Z</time>
      </trkpt>
      <trkpt lat="44.93678" lon="5.49921">
        <ele>1610</ele>
        <time>2020-06-27T14:16:21.445Z</time>
      </trkpt>
      <trkpt lat="44.93682" lon="5.49911">
        <ele>1609.2</ele>
        <time>2020-06-27T14:16:28.873Z</time>
      </trkpt>
      <trkpt lat="44.93689" lon="5.49899">
        <ele>1607.7</ele>
        <time>2020-06-27T14:16:36.314Z</time>
      </trkpt>
      <trkpt lat="44.93689" lon="5.49894">
        <ele>1607.7</ele>
        <time>2020-06-27T14:16:43.759Z</time>
      </trkpt>
      <trkpt lat="44.93694" lon="5.49878">
        <ele>1606.2</ele>
        <time>2020-06-27T14:16:51.217Z</time>
      </trkpt>
      <trkpt lat="44.93694" lon="5.49867">
        <ele>1605.3</ele>
        <time>2020-06-27T14:16:58.684Z</time>
      </trkpt>
      <trkpt lat="44.93704" lon="5.49834">
        <ele>1602.7</ele>
        <time>2020-06-27T14:17:06.178Z</time>
      </trkpt>
      <trkpt lat="44.93709" lon="5.49824">
        <ele>1602</ele>
        <time>2020-06-27T14:17:13.682Z</time>
      </trkpt>
      <trkpt lat="44.93714" lon="5.49821">
        <ele>1602.4</ele>
        <time>2020-06-27T14:17:21.191Z</time>
      </trkpt>
      <trkpt lat="44.93718" lon="5.49809">
        <ele>1602.3</ele>
        <time>2020-06-27T14:17:28.710Z</time>
      </trkpt>
      <trkpt lat="44.93723" lon="5.49804">
        <ele>1602.1</ele>
        <time>2020-06-27T14:17:36.236Z</time>
      </trkpt>
      <trkpt lat="44.93725" lon="5.49797">
        <ele>1601.8</ele>
        <time>2020-06-27T14:17:43.768Z</time>
      </trkpt>
      <trkpt lat="44.93732" lon="5.49788">
        <ele>1602</ele>
        <time>2020-06-27T14:17:51.311Z</time>
      </trkpt>
      <trkpt lat="44.93752" lon="5.49722">
        <ele>1602.2</ele>
        <time>2020-06-27T14:17:58.909Z</time>
      </trkpt>
      <trkpt lat="44.93774" lon="5.4969">
        <ele>1606.2</ele>
        <time>2020-06-27T14:18:06.541Z</time>
      </trkpt>
      <trkpt lat="44.93773" lon="5.4968">
        <ele>1606.8</ele>
        <time>2020-06-27T14:18:14.181Z</time>
      </trkpt>
      <trkpt lat="44.93775" lon="5.49672">
        <ele>1607.2</ele>
        <time>2020-06-27T14:18:21.827Z</time>
      </trkpt>
      <trkpt lat="44.93777" lon="5.49669">
        <ele>1607.3</ele>
        <time>2020-06-27T14:18:29.476Z</time>
      </trkpt>
      <trkpt lat="44.93782" lon="5.49655">
        <ele>1608</ele>
        <time>2020-06-27T14:18:37.137Z</time>
      </trkpt>
      <trkpt lat="44.93794" lon="5.49639">
        <ele>1609.5</ele>
        <time>2020-06-27T14:18:44.816Z</time>
      </trkpt>
      <trkpt lat="44.93794" lon="5.49632">
        <ele>1609.6</ele>
        <time>2020-06-27T14:18:52.501Z</time>
      </trkpt>
      <trkpt lat="44.93804" lon="5.49608">
        <ele>1612.8</ele>
        <time>2020-06-27T14:19:00.207Z</time>
      </trkpt>
      <trkpt lat="44.93805" lon="5.49598">
        <ele>1613.5</ele>
        <time>2020-06-27T14:19:07.921Z</time>
      </trkpt>
      <trkpt lat="44.93809" lon="5.49586">
        <ele>1614.9</ele>
        <time>2020-06-27T14:19:15.645Z</time>
      </trkpt>
      <trkpt lat="44.93812" lon="5.49584">
        <ele>1615.5</ele>
        <time>2020-06-27T14:19:23.372Z</time>
      </trkpt>
      <trkpt lat="44.93818" lon="5.49555">
        <ele>1614</ele>
        <time>2020-06-27T14:19:31.123Z</time>
      </trkpt>
      <trkpt lat="44.93825" lon="5.49543">
        <ele>1613.5</ele>
        <time>2020-06-27T14:19:38.885Z</time>
      </trkpt>
      <trkpt lat="44.93824" lon="5.49538">
        <ele>1613.8</ele>
        <time>2020-06-27T14:19:46.651Z</time>
      </trkpt>
      <trkpt lat="44.93829" lon="5.49522">
        <ele>1614.4</ele>
        <time>2020-06-27T14:19:54.431Z</time>
      </trkpt>
      <trkpt lat="44.93834" lon="5.49517">
        <ele>1614.5</ele>
        <time>2020-06-27T14:20:02.218Z</time>
      </trkpt>
      <trkpt lat="44.93836" lon="5.49506">
        <ele>1613.9</ele>
        <time>2020-06-27T14:20:10.013Z</time>
      </trkpt>
      <trkpt lat="44.93842" lon="5.49498">
        <ele>1611.7</ele>
        <time>2020-06-27T14:20:17.817Z</time>
      </trkpt>
      <trkpt lat="44.93849" lon="5.49466">
        <ele>1606</ele>
        <time>2020-06-27T14:20:25.647Z</time>
      </trkpt>
      <trkpt lat="44.93854" lon="5.49452">
        <ele>1603.9</ele>
        <time>2020-06-27T14:20:33.489Z</time>
      </trkpt>
      <trkpt lat="44.93859" lon="5.49445">
        <ele>1602.2</ele>
        <time>2020-06-27T14:20:41.339Z</time>
      </trkpt>
      <trkpt lat="44.93859" lon="5.49441">
        <ele>1601.8</ele>
        <time>2020-06-27T14:20:49.192Z</time>
      </trkpt>
      <trkpt lat="44.93864" lon="5.49436">
        <ele>1600.2</ele>
        <time>2020-06-27T14:20:57.051Z</time>
      </trkpt>
      <trkpt lat="44.93868" lon="5.49415">
        <ele>1597.3</ele>
        <time>2020-06-27T14:21:04.926Z</time>
      </trkpt>
      <trkpt lat="44.93874" lon="5.49409">
        <ele>1595.5</ele>
        <time>2020-06-27T14:21:12.810Z</time>
      </trkpt>
      <trkpt lat="44.9388" lon="5.49405">
        <ele>1595.4</ele>
        <time>2020-06-27T14:21:20.701Z</time>
      </trkpt>
      <trkpt lat="44.93891" lon="5.49391">
        <ele>1593.9</ele>
        <time>2020-06-27T14:21:28.607Z</time>
      </trkpt>
      <trkpt lat="44.93898" lon="5.49377">
        <ele>1591.5</ele>
        <time>2020-06-27T14:21:36.527Z</time>
      </trkpt>
      <trkpt lat="44.93906" lon="5.49352">
        <ele>1588.8</ele>
        <time>2020-06-27T14:21:44.468Z</time>
      </trkpt>
      <trkpt lat="44.93904" lon="5.49344">
        <ele>1588.2</ele>
        <time>2020-06-27T14:21:52.416Z</time>
      </trkpt>
      <trkpt lat="44.93904" lon="5.49332">
        <ele>1587</ele>
        <time>2020-06-27T14:22:00.373Z</time>
      </trkpt>
      <trkpt lat="44.93914" lon="5.4931">
        <ele>1583.5</ele>
        <time>2020-06-27T14:22:08.350Z</time>
      </trkpt>
      <trkpt lat="44.93919" lon="5.49285">
        <ele>1579.8</ele>
        <time>2020-06-27T14:22:16.347Z</time>
      </trkpt>
      <trkpt lat="44.93919" lon="5.49278">
        <ele>1578.9</ele>
        <time>2020-06-27T14:22:24.350Z</time>
      </trkpt>
      <trkpt lat="44.93924" lon="5.49267">
        <ele>1577.1</ele>
        <time>2020-06-27T14:22:32.363Z</time>
      </trkpt>
      <trkpt lat="44.93929" lon="5.4925">
        <ele>1574.7</ele>
        <time>2020-06-27T14:22:40.389Z</time>
      </trkpt>
      <trkpt lat="44.9393" lon="5.49229">
        <ele>1572.1</ele>
        <time>2020-06-27T14:22:48.432Z</time>
      </trkpt>
      <trkpt lat="44.93939" lon="5.49203">
        <ele>1569.1</ele>
        <time>2020-06-27T14:22:56.497Z</time>
      </trkpt>
      <trkpt lat="44.93944" lon="5.49197">
        <ele>1568.1</ele>
        <time>2020-06-27T14:23:04.570Z</time>
      </trkpt>
      <trkpt lat="44.93948" lon="5.49186">
        <ele>1566.3</ele>
        <time>2020-06-27T14:23:12.652Z</time>
      </trkpt>
      <trkpt lat="44.93966" lon="5.49156">
        <ele>1561.4</ele>
        <time>2020-06-27T14:23:20.764Z</time>
      </trkpt>
      <trkpt lat="44.9397" lon="5.49144">
        <ele>1559.7</ele>
        <time>2020-06-27T14:23:28.887Z</time>
      </trkpt>
      <trkpt lat="44.93976" lon="5.49136">
        <ele>1557.7</ele>
        <time>2020-06-27T14:23:37.018Z</time>
      </trkpt>
      <trkpt lat="44.93985" lon="5.49109">
        <ele>1554.9</ele>
        <time>2020-06-27T14:23:45.172Z</time>
      </trkpt>
      <trkpt lat="44.93984" lon="5.49092">
        <ele>1554</ele>
        <time>2020-06-27T14:23:53.339Z</time>
      </trkpt>
      <trkpt lat="44.93988" lon="5.49072">
        <ele>1551.7</ele>
        <time>2020-06-27T14:24:01.522Z</time>
      </trkpt>
      <trkpt lat="44.9399" lon="5.49069">
        <ele>1550.9</ele>
        <time>2020-06-27T14:24:09.708Z</time>
      </trkpt>
      <trkpt lat="44.94004" lon="5.4906">
        <ele>1547.1</ele>
        <time>2020-06-27T14:24:17.912Z</time>
      </trkpt>
      <trkpt lat="44.94011" lon="5.49053">
        <ele>1544.8</ele>
        <time>2020-06-27T14:24:26.124Z</time>
      </trkpt>
      <trkpt lat="44.94022" lon="5.49036">
        <ele>1542.5</ele>
        <time>2020-06-27T14:24:34.354Z</time>
      </trkpt>
      <trkpt lat="44.94026" lon="5.49034">
        <ele>1541.8</ele>
        <time>2020-06-27T14:24:42.589Z</time>
      </trkpt>
      <trkpt lat="44.94037" lon="5.49012">
        <ele>1538.1</ele>
        <time>2020-06-27T14:24:50.845Z</time>
      </trkpt>
      <trkpt lat="44.94041" lon="5.48998">
        <ele>1536.5</ele>
        <time>2020-06-27T14:24:59.112Z</time>
      </trkpt>
      <trkpt lat="44.94044" lon="5.48993">
        <ele>1536.4</ele>
        <time>2020-06-27T14:25:07.384Z</time>
      </trkpt>
      <trkpt lat="44.94045" lon="5.48988">
        <ele>1536.2</ele>
        <time>2020-06-27T14:25:15.660Z</time>
      </trkpt>
      <trkpt lat="44.94057" lon="5.48975">
        <ele>1535.2</ele>
        <time>2020-06-27T14:25:23.953Z</time>
      </trkpt>
      <trkpt lat="44.94058" lon="5.48969">
        <ele>1534</ele>
        <time>2020-06-27T14:25:32.251Z</time>
      </trkpt>
      <trkpt lat="44.94063" lon="5.48957">
        <ele>1532.9</ele>
        <time>2020-06-27T14:25:40.560Z</time>
      </trkpt>
      <trkpt lat="44.94064" lon="5.48945">
        <ele>1532.5</ele>
        <time>2020-06-27T14:25:48.878Z</time>
      </trkpt>
      <trkpt lat="44.9407" lon="5.48928">
        <ele>1531.6</ele>
        <time>2020-06-27T14:25:57.210Z</time>
      </trkpt>
      <trkpt lat="44.94082" lon="5.4891">
        <ele>1528.6</ele>
        <time>2020-06-27T14:26:05.561Z</time>
      </trkpt>
      <trkpt lat="44.94084" lon="5.48905">
        <ele>1527.6</ele>
        <time>2020-06-27T14:26:13.917Z</time>
      </trkpt>
      <trkpt lat="44.94085" lon="5.48887">
        <ele>1525</ele>
        <time>2020-06-27T14:26:22.287Z</time>
      </trkpt>
      <trkpt lat="44.94087" lon="5.48878">
        <ele>1523.8</ele>
        <time>2020-06-27T14:26:30.664Z</time>
      </trkpt>
      <trkpt lat="44.94096" lon="5.48868">
        <ele>1521.5</ele>
        <time>2020-06-27T14:26:39.053Z</time>
      </trkpt>
      <trkpt lat="44.94101" lon="5.48868">
        <ele>1520.5</ele>
        <time>2020-06-27T14:26:47.448Z</time>
      </trkpt>
      <trkpt lat="44.94113" lon="5.48856">
        <ele>1517.5</ele>
        <time>2020-06-27T14:26:55.859Z</time>
      </trkpt>
      <trkpt lat="44.94114" lon="5.48848">
        <ele>1516.8</ele>
        <time>2020-06-27T14:27:04.276Z</time>
      </trkpt>
      <trkpt lat="44.94112" lon="5.48833">
        <ele>1516.3</ele>
        <time>2020-06-27T14:27:12.705Z</time>
      </trkpt>
      <trkpt lat="44.94117" lon="5.48822">
        <ele>1514.7</ele>
        <time>2020-06-27T14:27:21.144Z</time>
      </trkpt>
      <trkpt lat="44.94117" lon="5.48817">
        <ele>1514.4</ele>
        <time>2020-06-27T14:27:29.587Z</time>
      </trkpt>
      <trkpt lat="44.94123" lon="5.48794">
        <ele>1511.9</ele>
        <time>2020-06-27T14:27:38.049Z</time>
      </trkpt>
      <trkpt lat="44.94133" lon="5.48785">
        <ele>1511.3</ele>
        <time>2020-06-27T14:27:46.524Z</time>
      </trkpt>
      <trkpt lat="44.94145" lon="5.48765">
        <ele>1510.2</ele>
        <time>2020-06-27T14:27:55.019Z</time>
      </trkpt>
      <trkpt lat="44.94153" lon="5.48742">
        <ele>1508.8</ele>
        <time>2020-06-27T14:28:03.534Z</time>
      </trkpt>
      <trkpt lat="44.94164" lon="5.48726">
        <ele>1504.4</ele>
        <time>2020-06-27T14:28:12.067Z</time>
      </trkpt>
      <trkpt lat="44.94173" lon="5.48699">
        <ele>1501.2</ele>
        <time>2020-06-27T14:28:20.623Z</time>
      </trkpt>
      <trkpt lat="44.94176" lon="5.48696">
        <ele>1500.6</ele>
        <time>2020-06-27T14:28:29.182Z</time>
      </trkpt>
      <trkpt lat="44.94178" lon="5.48695">
        <ele>1500.3</ele>
        <time>2020-06-27T14:28:37.744Z</time>
      </trkpt>
      <trkpt lat="44.94188" lon="5.48673">
        <ele>1497.9</ele>
        <time>2020-06-27T14:28:46.327Z</time>
      </trkpt>
      <trkpt lat="44.94196" lon="5.48666">
        <ele>1496.2</ele>
        <time>2020-06-27T14:28:54.919Z</time>
      </trkpt>
      <trkpt lat="44.94201" lon="5.48659">
        <ele>1495.1</ele>
        <time>2020-06-27T14:29:03.519Z</time>
      </trkpt>
      <trkpt lat="44.94206" lon="5.48645">
        <ele>1493.7</ele>
        <time>2020-06-27T14:29:12.131Z</time>
      </trkpt>
      <trkpt lat="44.94219" lon="5.48623">
        <ele>1492.6</ele>
        <time>2020-06-27T14:29:20.766Z</time>
      </trkpt>
      <trkpt lat="44.94231" lon="5.486">
        <ele>1492</ele>
        <time>2020-06-27T14:29:29.422Z</time>
      </trkpt>
      <trkpt lat="44.94235" lon="5.48589">
        <ele>1491.8</ele>
        <time>2020-06-27T14:29:38.088Z</time>
      </trkpt>
      <trkpt lat="44.94237" lon="5.48572">
        <ele>1490.8</ele>
        <time>2020-06-27T14:29:46.767Z</time>
      </trkpt>
      <trkpt lat="44.94238" lon="5.48569">
        <ele>1490.3</ele>
        <time>2020-06-27T14:29:55.449Z</time>
      </trkpt>
      <trkpt lat="44.94244" lon="5.48565">
        <ele>1489</ele>
        <time>2020-06-27T14:30:04.138Z</time>
      </trkpt>
      <trkpt lat="44.94246" lon="5.48561">
        <ele>1488.2</ele>
        <time>2020-06-27T14:30:12.831Z</time>
      </trkpt>
      <trkpt lat="44.94253" lon="5.48532">
        <ele>1485.6</ele>
        <time>2020-06-27T14:30:21.548Z</time>
      </trkpt>
      <trkpt lat="44.94259" lon="5.48523">
        <ele>1484.5</ele>
        <time>2020-06-27T14:30:30.274Z</time>
      </trkpt>
      <trkpt lat="44.94258" lon="5.48519">
        <ele>1484.6</ele>
        <time>2020-06-27T14:30:39.003Z</time>
      </trkpt>
      <trkpt lat="44.94267" lon="5.48494">
        <ele>1480.9</ele>
        <time>2020-06-27T14:30:47.754Z</time>
      </trkpt>
      <trkpt lat="44.94269" lon="5.48483">
        <ele>1479.6</ele>
        <time>2020-06-27T14:30:56.514Z</time>
      </trkpt>
      <trkpt lat="44.94273" lon="5.48479">
        <ele>1478.5</ele>
        <time>2020-06-27T14:31:05.279Z</time>
      </trkpt>
      <trkpt lat="44.94275" lon="5.4847">
        <ele>1477.3</ele>
        <time>2020-06-27T14:31:14.051Z</time>
      </trkpt>
      <trkpt lat="44.94285" lon="5.48455">
        <ele>1474.8</ele>
        <time>2020-06-27T14:31:22.839Z</time>
      </trkpt>
      <trkpt lat="44.94297" lon="5.4843">
        <ele>1472.5</ele>
        <time>2020-06-27T14:31:31.650Z</time>
      </trkpt>
      <trkpt lat="44.94298" lon="5.48426">
        <ele>1472.3</ele>
        <time>2020-06-27T14:31:40.464Z</time>
      </trkpt>
      <trkpt lat="44.94295" lon="5.4842">
        <ele>1472.5</ele>
        <time>2020-06-27T14:31:49.284Z</time>
      </trkpt>
      <trkpt lat="44.94294" lon="5.48401">
        <ele>1472.1</ele>
        <time>2020-06-27T14:31:58.118Z</time>
      </trkpt>
      <trkpt lat="44.94288" lon="5.48389">
        <ele>1472.6</ele>
        <time>2020-06-27T14:32:06.964Z</time>
      </trkpt>
      <trkpt lat="44.94285" lon="5.48377">
        <ele>1472.8</ele>
        <time>2020-06-27T14:32:15.820Z</time>
      </trkpt>
      <trkpt lat="44.94286" lon="5.48367">
        <ele>1472.5</ele>
        <time>2020-06-27T14:32:24.684Z</time>
      </trkpt>
      <trkpt lat="44.94283" lon="5.48359">
        <ele>1472.8</ele>
        <time>2020-06-27T14:32:33.554Z</time>
      </trkpt>
      <trkpt lat="44.94291" lon="5.48339">
        <ele>1471.4</ele>
        <time>2020-06-27T14:32:42.442Z</time>
      </trkpt>
      <trkpt lat="44.9429" lon="5.48329">
        <ele>1471.5</ele>
        <time>2020-06-27T14:32:51.337Z</time>
      </trkpt>
      <trkpt lat="44.94292" lon="5.48325">
        <ele>1471.2</ele>
        <time>2020-06-27T14:33:00.236Z</time>
      </trkpt>
      <trkpt lat="44.94293" lon="5.48306">
        <ele>1470.9</ele>
        <time>2020-06-27T14:33:09.150Z</time>
      </trkpt>
      <trkpt lat="44.94296" lon="5.48299">
        <ele>1470.6</ele>
        <time>2020-06-27T14:33:18.071Z</time>
      </trkpt>
      <trkpt lat="44.94296" lon="5.48284">
        <ele>1470.1</ele>
        <time>2020-06-27T14:33:27.003Z</time>
      </trkpt>
      <trkpt lat="44.94298" lon="5.48275">
        <ele>1469.6</ele>
        <time>2020-06-27T14:33:35.942Z</time>
      </trkpt>
      <trkpt lat="44.94297" lon="5.4826">
        <ele>1469.1</ele>
        <time>2020-06-27T14:33:44.892Z</time>
      </trkpt>
      <trkpt lat="44.94307" lon="5.48231">
        <ele>1467.4</ele>
        <time>2020-06-27T14:33:53.868Z</time>
      </trkpt>
      <trkpt lat="44.94315" lon="5.48216">
        <ele>1466.2</ele>
        <time>2020-06-27T14:34:02.858Z</time>
      </trkpt>
      <trkpt lat="44.94321" lon="5.48191">
        <ele>1463.4</ele>
        <time>2020-06-27T14:34:11.868Z</time>
      </trkpt>
      <trkpt lat="44.9433" lon="5.48172">
        <ele>1460.9</ele>
        <time>2020-06-27T14:34:20.896Z</time>
      </trkpt>
      <trkpt lat="44.94333" lon="5.48158">
        <ele>1459.8</ele>
        <time>2020-06-27T14:34:29.936Z</time>
      </trkpt>
      <trkpt lat="44.94341" lon="5.48142">
        <ele>1458.2</ele>
        <time>2020-06-27T14:34:38.991Z</time>
      </trkpt>
      <trkpt lat="44.94346" lon="5.48137">
        <ele>1457.6</ele>
        <time>2020-06-27T14:34:48.052Z</time>
      </trkpt>
      <trkpt lat="44.9435" lon="5.48124">
        <ele>1456.6</ele>
        <time>2020-06-27T14:34:57.124Z</time>
      </trkpt>
      <trkpt lat="44.94354" lon="5.48117">
        <ele>1456</ele>
        <time>2020-06-27T14:35:06.203Z</time>
      </trkpt>
      <trkpt lat="44.94358" lon="5.48088">
        <ele>1454.1</ele>
        <time>2020-06-27T14:35:15.305Z</time>
      </trkpt>
      <trkpt lat="44.94363" lon="5.48073">
        <ele>1452.9</ele>
        <time>2020-06-27T14:35:24.419Z</time>
      </trkpt>
      <trkpt lat="44.94361" lon="5.48058">
        <ele>1452.1</ele>
        <time>2020-06-27T14:35:33.545Z</time>
      </trkpt>
      <trkpt lat="44.94363" lon="5.48035">
        <ele>1450.7</ele>
        <time>2020-06-27T14:35:42.688Z</time>
      </trkpt>
      <trkpt lat="44.94359" lon="5.48026">
        <ele>1450.3</ele>
        <time>2020-06-27T14:35:51.839Z</time>
      </trkpt>
      <trkpt lat="44.94364" lon="5.48017">
        <ele>1449.1</ele>
        <time>2020-06-27T14:36:00.999Z</time>
      </trkpt>
      <trkpt lat="44.94366" lon="5.48006">
        <ele>1448</ele>
        <time>2020-06-27T14:36:10.168Z</time>
      </trkpt>
      <trkpt lat="44.94372" lon="5.47993">
        <ele>1446.4</ele>
        <time>2020-06-27T14:36:19.349Z</time>
      </trkpt>
      <trkpt lat="44.94377" lon="5.47986">
        <ele>1445.5</ele>
        <time>2020-06-27T14:36:28.538Z</time>
      </trkpt>
      <trkpt lat="44.94382" lon="5.47983">
        <ele>1444.9</ele>
        <time>2020-06-27T14:36:37.733Z</time>
      </trkpt>
      <trkpt lat="44.94394" lon="5.47971">
        <ele>1443.2</ele>
        <time>2020-06-27T14:36:46.943Z</time>
      </trkpt>
      <trkpt lat="44.94399" lon="5.47969">
        <ele>1442.7</ele>
        <time>2020-06-27T14:36:56.159Z</time>
      </trkpt>
      <trkpt lat="44.94406" lon="5.47964">
        <ele>1442</ele>
        <time>2020-06-27T14:37:05.384Z</time>
      </trkpt>
      <trkpt lat="44.9441" lon="5.47958">
        <ele>1441.4</ele>
        <time>2020-06-27T14:37:14.615Z</time>
      </trkpt>
      <trkpt lat="44.94417" lon="5.47955">
        <ele>1440.9</ele>
        <time>2020-06-27T14:37:23.854Z</time>
      </trkpt>
      <trkpt lat="44.94425" lon="5.47945">
        <ele>1439.9</ele>
        <time>2020-06-27T14:37:33.104Z</time>
      </trkpt>
      <trkpt lat="44.94446" lon="5.47941">
        <ele>1438.5</ele>
        <time>2020-06-27T14:37:42.377Z</time>
      </trkpt>
      <trkpt lat="44.9445" lon="5.47937">
        <ele>1438</ele>
        <time>2020-06-27T14:37:51.656Z</time>
      </trkpt>
      <trkpt lat="44.94461" lon="5.47936">
        <ele>1437.2</ele>
        <time>2020-06-27T14:38:00.946Z</time>
      </trkpt>
      <trkpt lat="44.94468" lon="5.47931">
        <ele>1436.3</ele>
        <time>2020-06-27T14:38:10.245Z</time>
      </trkpt>
      <trkpt lat="44.94475" lon="5.47924">
        <ele>1435.3</ele>
        <time>2020-06-27T14:38:19.553Z</time>
      </trkpt>
      <trkpt lat="44.94475" lon="5.47917">
        <ele>1434.9</ele>
        <time>2020-06-27T14:38:28.866Z</time>
      </trkpt>
      <trkpt lat="44.94482" lon="5.4791">
        <ele>1433.9</ele>
        <time>2020-06-27T14:38:38.189Z</time>
      </trkpt>
      <trkpt lat="44.94482" lon="5.47908">
        <ele>1433.8</ele>
        <time>2020-06-27T14:38:47.513Z</time>
      </trkpt>
      <trkpt lat="44.94488" lon="5.47903">
        <ele>1432.4</ele>
        <time>2020-06-27T14:38:56.844Z</time>
      </trkpt>
      <trkpt lat="44.94502" lon="5.4788">
        <ele>1428</ele>
        <time>2020-06-27T14:39:06.199Z</time>
      </trkpt>
      <trkpt lat="44.9451" lon="5.47872">
        <ele>1426.7</ele>
        <time>2020-06-27T14:39:15.565Z</time>
      </trkpt>
      <trkpt lat="44.94511" lon="5.47866">
        <ele>1426.4</ele>
        <time>2020-06-27T14:39:24.936Z</time>
      </trkpt>
      <trkpt lat="44.94518" lon="5.4786">
        <ele>1425.3</ele>
        <time>2020-06-27T14:39:34.315Z</time>
      </trkpt>
      <trkpt lat="44.94522" lon="5.47859">
        <ele>1424.8</ele>
        <time>2020-06-27T14:39:43.699Z</time>
      </trkpt>
      <trkpt lat="44.94532" lon="5.47862">
        <ele>1423.4</ele>
        <time>2020-06-27T14:39:53.093Z</time>
      </trkpt>
      <trkpt lat="44.94544" lon="5.47876">
        <ele>1421.8</ele>
        <time>2020-06-27T14:40:02.504Z</time>
      </trkpt>
      <trkpt lat="44.94553" lon="5.4788">
        <ele>1421</ele>
        <time>2020-06-27T14:40:11.926Z</time>
      </trkpt>
      <trkpt lat="44.94569" lon="5.47872">
        <ele>1419.8</ele>
        <time>2020-06-27T14:40:21.366Z</time>
      </trkpt>
      <trkpt lat="44.94578" lon="5.4783">
        <ele>1419.6</ele>
        <time>2020-06-27T14:40:30.840Z</time>
      </trkpt>
      <trkpt lat="44.94589" lon="5.47821">
        <ele>1419</ele>
        <time>2020-06-27T14:40:40.328Z</time>
      </trkpt>
      <trkpt lat="44.94597" lon="5.47807">
        <ele>1418.8</ele>
        <time>2020-06-27T14:40:49.830Z</time>
      </trkpt>
      <trkpt lat="44.94602" lon="5.47793">
        <ele>1418.9</ele>
        <time>2020-06-27T14:40:59.344Z</time>
      </trkpt>
      <trkpt lat="44.94605" lon="5.47771">
        <ele>1419.6</ele>
        <time>2020-06-27T14:41:08.875Z</time>
      </trkpt>
      <trkpt lat="44.94608" lon="5.4776">
        <ele>1419.8</ele>
        <time>2020-06-27T14:41:18.416Z</time>
      </trkpt>
      <trkpt lat="44.94619" lon="5.47752">
        <ele>1419.1</ele>
        <time>2020-06-27T14:41:27.970Z</time>
      </trkpt>
      <trkpt lat="44.94655" lon="5.47717">
        <ele>1415.5</ele>
        <time>2020-06-27T14:41:37.571Z</time>
      </trkpt>
      <trkpt lat="44.94672" lon="5.47707">
        <ele>1413.7</ele>
        <time>2020-06-27T14:41:47.192Z</time>
      </trkpt>
      <trkpt lat="44.94675" lon="5.477">
        <ele>1413.7</ele>
        <time>2020-06-27T14:41:56.819Z</time>
      </trkpt>
      <trkpt lat="44.94678" lon="5.47699">
        <ele>1413.3</ele>
        <time>2020-06-27T14:42:06.450Z</time>
      </trkpt>
      <trkpt lat="44.94686" lon="5.47685">
        <ele>1412.9</ele>
        <time>2020-06-27T14:42:16.095Z</time>
      </trkpt>
      <trkpt lat="44.94689" lon="5.47677">
        <ele>1412.8</ele>
        <time>2020-06-27T14:42:25.746Z</time>
      </trkpt>
      <trkpt lat="44.94693" lon="5.47671">
        <ele>1412.4</ele>
        <time>2020-06-27T14:42:35.404Z</time>
      </trkpt>
      <trkpt lat="44.94702" lon="5.47666">
        <ele>1411.3</ele>
        <time>2020-06-27T14:42:45.072Z</time>
      </trkpt>
      <trkpt lat="44.94712" lon="5.47654">
        <ele>1410.6</ele>
        <time>2020-06-27T14:42:54.754Z</time>
      </trkpt>
      <trkpt lat="44.94718" lon="5.47657">
        <ele>1409.8</ele>
        <time>2020-06-27T14:43:04.444Z</time>
      </trkpt>
      <trkpt lat="44.94724" lon="5.47657">
        <ele>1409.3</ele>
        <time>2020-06-27T14:43:14.140Z</time>
      </trkpt>
      <trkpt lat="44.94729" lon="5.47651">
        <ele>1409</ele>
        <time>2020-06-27T14:43:23.843Z</time>
      </trkpt>
      <trkpt lat="44.94735" lon="5.47648">
        <ele>1408.3</ele>
        <time>2020-06-27T14:43:33.553Z</time>
      </trkpt>
      <trkpt lat="44.94746" lon="5.4764">
        <ele>1407.2</ele>
        <time>2020-06-27T14:43:43.277Z</time>
      </trkpt>
      <trkpt lat="44.94756" lon="5.47629">
        <ele>1406.6</ele>
        <time>2020-06-27T14:43:53.014Z</time>
      </trkpt>
      <trkpt lat="44.94759" lon="5.47628">
        <ele>1406.4</ele>
        <time>2020-06-27T14:44:02.755Z</time>
      </trkpt>
      <trkpt lat="44.94757" lon="5.47625">
        <ele>1406.9</ele>
        <time>2020-06-27T14:44:12.499Z</time>
      </trkpt>
      <trkpt lat="44.94754" lon="5.47631">
        <ele>1406.6</ele>
        <time>2020-06-27T14:44:22.249Z</time>
      </trkpt>
      <trkpt lat="44.94755" lon="5.47632">
        <ele>1406.4</ele>
        <time>2020-06-27T14:44:32.001Z</time>
      </trkpt>
      <trkpt lat="44.94762" lon="5.47624">
        <ele>1406.4</ele>
        <time>2020-06-27T14:44:41.763Z</time>
      </trkpt>
      <trkpt lat="44.94772" lon="5.47618">
        <ele>1405.9</ele>
        <time>2020-06-27T14:44:51.536Z</time>
      </trkpt>
      <trkpt lat="44.94783" lon="5.47618">
        <ele>1404.5</ele>
        <time>2020-06-27T14:45:01.321Z</time>
      </trkpt>
      <trkpt lat="44.94798" lon="5.47631">
        <ele>1401.8</ele>
        <time>2020-06-27T14:45:11.126Z</time>
      </trkpt>
      <trkpt lat="44.948" lon="5.47632">
        <ele>1401.5</ele>
        <time>2020-06-27T14:45:20.933Z</time>
      </trkpt>
      <trkpt lat="44.94809" lon="5.47629">
        <ele>1401.3</ele>
        <time>2020-06-27T14:45:30.750Z</time>
      </trkpt>
      <trkpt lat="44.94833" lon="5.47616">
        <ele>1401.1</ele>
        <time>2020-06-27T14:45:40.595Z</time>
      </trkpt>
      <trkpt lat="44.94855" lon="5.47597">
        <ele>1400.8</ele>
        <time>2020-06-27T14:45:50.468Z</time>
      </trkpt>
      <trkpt lat="44.94883" lon="5.47564">
        <ele>1399.8</ele>
        <time>2020-06-27T14:46:00.380Z</time>
      </trkpt>
      <trkpt lat="44.94902" lon="5.47551">
        <ele>1399.3</ele>
        <time>2020-06-27T14:46:10.316Z</time>
      </trkpt>
      <trkpt lat="44.94908" lon="5.47545">
        <ele>1399.6</ele>
        <time>2020-06-27T14:46:20.260Z</time>
      </trkpt>
      <trkpt lat="44.94916" lon="5.47527">
        <ele>1401.5</ele>
        <time>2020-06-27T14:46:30.220Z</time>
      </trkpt>
      <trkpt lat="44.94923" lon="5.47519">
        <ele>1402.1</ele>
        <time>2020-06-27T14:46:40.190Z</time>
      </trkpt>
      <trkpt lat="44.94947" lon="5.47505">
        <ele>1401.3</ele>
        <time>2020-06-27T14:46:50.189Z</time>
      </trkpt>
      <trkpt lat="44.94954" lon="5.47506">
        <ele>1400.5</ele>
        <time>2020-06-27T14:47:00.194Z</time>
      </trkpt>
      <trkpt lat="44.94959" lon="5.47503">
        <ele>1400.3</ele>
        <time>2020-06-27T14:47:10.206Z</time>
      </trkpt>
      <trkpt lat="44.94966" lon="5.47504">
        <ele>1399.7</ele>
        <time>2020-06-27T14:47:20.225Z</time>
      </trkpt>
      <trkpt lat="44.94979" lon="5.475">
        <ele>1399</ele>
        <time>2020-06-27T14:47:30.258Z</time>
      </trkpt>
      <trkpt lat="44.94991" lon="5.47501">
        <ele>1397.9</ele>
        <time>2020-06-27T14:47:40.304Z</time>
      </trkpt>
      <trkpt lat="44.94998" lon="5.47503">
        <ele>1397</ele>
        <time>2020-06-27T14:47:50.358Z</time>
      </trkpt>
      <trkpt lat="44.95008" lon="5.47517">
        <ele>1394.9</ele>
        <time>2020-06-27T14:48:00.427Z</time>
      </trkpt>
      <trkpt lat="44.95041" lon="5.47538">
        <ele>1390</ele>
        <time>2020-06-27T14:48:10.535Z</time>
      </trkpt>
      <trkpt lat="44.95055" lon="5.47556">
        <ele>1388.8</ele>
        <time>2020-06-27T14:48:20.664Z</time>
      </trkpt>
      <trkpt lat="44.95081" lon="5.47562">
        <ele>1388.4</ele>
        <time>2020-06-27T14:48:30.822Z</time>
      </trkpt>
      <trkpt lat="44.95089" lon="5.47571">
        <ele>1388.2</ele>
        <time>2020-06-27T14:48:40.991Z</time>
      </trkpt>
      <trkpt lat="44.951" lon="5.47572">
        <ele>1388</ele>
        <time>2020-06-27T14:48:51.171Z</time>
      </trkpt>
      <trkpt lat="44.95107" lon="5.47595">
        <ele>1387.7</ele>
        <time>2020-06-27T14:49:01.372Z</time>
      </trkpt>
      <trkpt lat="44.95133" lon="5.47637">
        <ele>1387.5</ele>
        <time>2020-06-27T14:49:11.615Z</time>
      </trkpt>
      <trkpt lat="44.95144" lon="5.47651">
        <ele>1388.2</ele>
        <time>2020-06-27T14:49:21.874Z</time>
      </trkpt>
      <trkpt lat="44.95149" lon="5.47664">
        <ele>1388.9</ele>
        <time>2020-06-27T14:49:32.145Z</time>
      </trkpt>
      <trkpt lat="44.95181" lon="5.47689">
        <ele>1390.4</ele>
        <time>2020-06-27T14:49:42.455Z</time>
      </trkpt>
      <trkpt lat="44.95203" lon="5.47696">
        <ele>1391.5</ele>
        <time>2020-06-27T14:49:52.790Z</time>
      </trkpt>
      <trkpt lat="44.95223" lon="5.47694">
        <ele>1390.8</ele>
        <time>2020-06-27T14:50:03.146Z</time>
      </trkpt>
      <trkpt lat="44.95237" lon="5.47687">
        <ele>1389.9</ele>
        <time>2020-06-27T14:50:13.519Z</time>
      </trkpt>
      <trkpt lat="44.95252" lon="5.47674">
        <ele>1389</ele>
        <time>2020-06-27T14:50:23.911Z</time>
      </trkpt>
      <trkpt lat="44.95265" lon="5.47669">
        <ele>1389.3</ele>
        <time>2020-06-27T14:50:34.317Z</time>
      </trkpt>
      <trkpt lat="44.95268" lon="5.47667">
        <ele>1389.4</ele>
        <time>2020-06-27T14:50:44.727Z</time>
      </trkpt>
      <trkpt lat="44.95278" lon="5.47664">
        <ele>1389.5</ele>
        <time>2020-06-27T14:50:55.148Z</time>
      </trkpt>
      <trkpt lat="44.95287" lon="5.47659">
        <ele>1389.8</ele>
        <time>2020-06-27T14:51:05.580Z</time>
      </trkpt>
      <trkpt lat="44.95296" lon="5.4766">
        <ele>1389.5</ele>
        <time>2020-06-27T14:51:16.021Z</time>
      </trkpt>
      <trkpt lat="44.953" lon="5.47658">
        <ele>1389.4</ele>
        <time>2020-06-27T14:51:26.467Z</time>
      </trkpt>
      <trkpt lat="44.95304" lon="5.47654">
        <ele>1389.4</ele>
        <time>2020-06-27T14:51:36.919Z</time>
      </trkpt>
      <trkpt lat="44.95318" lon="5.47648">
        <ele>1389.3</ele>
        <time>2020-06-27T14:51:47.387Z</time>
      </trkpt>
      <trkpt lat="44.95324" lon="5.47644">
        <ele>1389.4</ele>
        <time>2020-06-27T14:51:57.862Z</time>
      </trkpt>
      <trkpt lat="44.95336" lon="5.47641">
        <ele>1389.3</ele>
        <time>2020-06-27T14:52:08.350Z</time>
      </trkpt>
      <trkpt lat="44.95339" lon="5.47638">
        <ele>1389.5</ele>
        <time>2020-06-27T14:52:18.842Z</time>
      </trkpt>
      <trkpt lat="44.95344" lon="5.47638">
        <ele>1389.4</ele>
        <time>2020-06-27T14:52:29.339Z</time>
      </trkpt>
      <trkpt lat="44.9535" lon="5.47642">
        <ele>1388.9</ele>
        <time>2020-06-27T14:52:39.843Z</time>
      </trkpt>
      <trkpt lat="44.95359" lon="5.47639">
        <ele>1388.9</ele>
        <time>2020-06-27T14:52:50.357Z</time>
      </trkpt>
      <trkpt lat="44.95374" lon="5.47644">
        <ele>1388.2</ele>
        <time>2020-06-27T14:53:00.888Z</time>
      </trkpt>
      <trkpt lat="44.9538" lon="5.47643">
        <ele>1388.1</ele>
        <time>2020-06-27T14:53:11.425Z</time>
      </trkpt>
      <trkpt lat="44.95391" lon="5.47645">
        <ele>1387.5</ele>
        <time>2020-06-27T14:53:21.975Z</time>
      </trkpt>
      <trkpt lat="44.954" lon="5.47645">
        <ele>1387</ele>
        <time>2020-06-27T14:53:32.534Z</time>
      </trkpt>
      <trkpt lat="44.95408" lon="5.47644">
        <ele>1386.7</ele>
        <time>2020-06-27T14:53:43.102Z</time>
      </trkpt>
      <trkpt lat="44.95411" lon="5.47642">
        <ele>1386.7</ele>
        <time>2020-06-27T14:53:53.674Z</time>
      </trkpt>
      <trkpt lat="44.95436" lon="5.47641">
        <ele>1385.6</ele>
        <time>2020-06-27T14:54:04.273Z</time>
      </trkpt>
      <trkpt lat="44.95453" lon="5.47644">
        <ele>1384.6</ele>
        <time>2020-06-27T14:54:14.890Z</time>
      </trkpt>
      <trkpt lat="44.95462" lon="5.47641">
        <ele>1384.4</ele>
        <time>2020-06-27T14:54:25.518Z</time>
      </trkpt>
      <trkpt lat="44.95471" lon="5.47641">
        <ele>1384</ele>
        <time>2020-06-27T14:54:36.156Z</time>
      </trkpt>
      <trkpt lat="44.95482" lon="5.47636">
        <ele>1383.5</ele>
        <time>2020-06-27T14:54:46.806Z</time>
      </trkpt>
      <trkpt lat="44.95518" lon="5.47656">
        <ele>1380.8</ele>
        <time>2020-06-27T14:54:57.498Z</time>
      </trkpt>
      <trkpt lat="44.95537" lon="5.47679">
        <ele>1379.1</ele>
        <time>2020-06-27T14:55:08.217Z</time>
      </trkpt>
      <trkpt lat="44.95543" lon="5.47682">
        <ele>1378.7</ele>
        <time>2020-06-27T14:55:18.943Z</time>
      </trkpt>
      <trkpt lat="44.95552" lon="5.47685">
        <ele>1378.2</ele>
        <time>2020-06-27T14:55:29.679Z</time>
      </trkpt>
      <trkpt lat="44.95561" lon="5.47694">
        <ele>1377.6</ele>
        <time>2020-06-27T14:55:40.427Z</time>
      </trkpt>
      <trkpt lat="44.95566" lon="5.47696">
        <ele>1377.3</ele>
        <time>2020-06-27T14:55:51.181Z</time>
      </trkpt>
      <trkpt lat="44.95579" lon="5.47697">
        <ele>1376.6</ele>
        <time>2020-06-27T14:56:01.948Z</time>
      </trkpt>
      <trkpt lat="44.95587" lon="5.477">
        <ele>1376.2</ele>
        <time>2020-06-27T14:56:12.725Z</time>
      </trkpt>
      <trkpt lat="44.95594" lon="5.47698">
        <ele>1375.9</ele>
        <time>2020-06-27T14:56:23.509Z</time>
      </trkpt>
      <trkpt lat="44.95598" lon="5.47693">
        <ele>1375.8</ele>
        <time>2020-06-27T14:56:34.299Z</time>
      </trkpt>
      <trkpt lat="44.95607" lon="5.47689">
        <ele>1375.5</ele>
        <time>2020-06-27T14:56:45.099Z</time>
      </trkpt>
      <trkpt lat="44.95623" lon="5.4767">
        <ele>1375.2</ele>
        <time>2020-06-27T14:56:55.922Z</time>
      </trkpt>
      <trkpt lat="44.9563" lon="5.47666">
        <ele>1374.9</ele>
        <time>2020-06-27T14:57:06.753Z</time>
      </trkpt>
      <trkpt lat="44.9564" lon="5.47663">
        <ele>1374.5</ele>
        <time>2020-06-27T14:57:17.595Z</time>
      </trkpt>
      <trkpt lat="44.95643" lon="5.47658">
        <ele>1374.5</ele>
        <time>2020-06-27T14:57:28.442Z</time>
      </trkpt>
      <trkpt lat="44.95645" lon="5.47659">
        <ele>1374.4</ele>
        <time>2020-06-27T14:57:39.292Z</time>
      </trkpt>
      <trkpt lat="44.95651" lon="5.47655">
        <ele>1374</ele>
        <time>2020-06-27T14:57:50.149Z</time>
      </trkpt>
      <trkpt lat="44.95663" lon="5.4765">
        <ele>1372.7</ele>
        <time>2020-06-27T14:58:01.019Z</time>
      </trkpt>
      <trkpt lat="44.95663" lon="5.47649">
        <ele>1372.7</ele>
        <time>2020-06-27T14:58:11.890Z</time>
      </trkpt>
      <trkpt lat="44.95668" lon="5.47648">
        <ele>1372.2</ele>
        <time>2020-06-27T14:58:22.766Z</time>
      </trkpt>
      <trkpt lat="44.95673" lon="5.47643">
        <ele>1371.6</ele>
        <time>2020-06-27T14:58:33.649Z</time>
      </trkpt>
      <trkpt lat="44.95675" lon="5.47638">
        <ele>1371.3</ele>
        <time>2020-06-27T14:58:44.537Z</time>
      </trkpt>
      <trkpt lat="44.9568" lon="5.47635">
        <ele>1370.7</ele>
        <time>2020-06-27T14:58:55.430Z</time>
      </trkpt>
      <trkpt lat="44.95683" lon="5.47635">
        <ele>1370.4</ele>
        <time>2020-06-27T14:59:06.327Z</time>
      </trkpt>
      <trkpt lat="44.95686" lon="5.47632">
        <ele>1370.2</ele>
        <time>2020-06-27T14:59:17.228Z</time>
      </trkpt>
      <trkpt lat="44.95694" lon="5.4763">
        <ele>1369.8</ele>
        <time>2020-06-27T14:59:28.138Z</time>
      </trkpt>
      <trkpt lat="44.95694" lon="5.47626">
        <ele>1370.4</ele>
        <time>2020-06-27T14:59:39.051Z</time>
      </trkpt>
      <trkpt lat="44.95703" lon="5.47622">
        <ele>1369.9</ele>
        <time>2020-06-27T14:59:49.975Z</time>
      </trkpt>
      <trkpt lat="44.95706" lon="5.47619">
        <ele>1369.9</ele>
        <time>2020-06-27T15:00:00.903Z</time>
      </trkpt>
      <trkpt lat="44.95709" lon="5.47618">
        <ele>1369.7</ele>
        <time>2020-06-27T15:00:11.835Z</time>
      </trkpt>
      <trkpt lat="44.95714" lon="5.4761">
        <ele>1370.1</ele>
        <time>2020-06-27T15:00:22.775Z</time>
      </trkpt>
      <trkpt lat="44.95721" lon="5.4761">
        <ele>1369.5</ele>
        <time>2020-06-27T15:00:33.722Z</time>
      </trkpt>
      <trkpt lat="44.95737" lon="5.47619">
        <ele>1366.9</ele>
        <time>2020-06-27T15:00:44.688Z</time>
      </trkpt>
      <trkpt lat="44.95773" lon="5.4762">
        <ele>1363.3</ele>
        <time>2020-06-27T15:00:55.694Z</time>
      </trkpt>
      <trkpt lat="44.95781" lon="5.47614">
        <ele>1363.1</ele>
        <time>2020-06-27T15:01:06.710Z</time>
      </trkpt>
      <trkpt lat="44.95787" lon="5.47604">
        <ele>1363.6</ele>
        <time>2020-06-27T15:01:17.736Z</time>
      </trkpt>
      <trkpt lat="44.95793" lon="5.47604">
        <ele>1362.9</ele>
        <time>2020-06-27T15:01:28.768Z</time>
      </trkpt>
      <trkpt lat="44.95797" lon="5.476">
        <ele>1362.9</ele>
        <time>2020-06-27T15:01:39.806Z</time>
      </trkpt>
      <trkpt lat="44.9581" lon="5.47601">
        <ele>1361.4</ele>
        <time>2020-06-27T15:01:50.858Z</time>
      </trkpt>
      <trkpt lat="44.95829" lon="5.47593">
        <ele>1360.2</ele>
        <time>2020-06-27T15:02:01.931Z</time>
      </trkpt>
      <trkpt lat="44.95835" lon="5.47584">
        <ele>1360.3</ele>
        <time>2020-06-27T15:02:13.013Z</time>
      </trkpt>
      <trkpt lat="44.95839" lon="5.47584">
        <ele>1359.8</ele>
        <time>2020-06-27T15:02:24.099Z</time>
      </trkpt>
      <trkpt lat="44.95842" lon="5.47582">
        <ele>1359.5</ele>
        <time>2020-06-27T15:02:35.189Z</time>
      </trkpt>
      <trkpt lat="44.9585" lon="5.47571">
        <ele>1359.4</ele>
        <time>2020-06-27T15:02:46.291Z</time>
      </trkpt>
      <trkpt lat="44.95856" lon="5.47566">
        <ele>1359</ele>
        <time>2020-06-27T15:02:57.402Z</time>
      </trkpt>
      <trkpt lat="44.95873" lon="5.47565">
        <ele>1356.9</ele>
        <time>2020-06-27T15:03:08.530Z</time>
      </trkpt>
      <trkpt lat="44.95882" lon="5.47562">
        <ele>1356.6</ele>
        <time>2020-06-27T15:03:19.669Z</time>
      </trkpt>
      <trkpt lat="44.95903" lon="5.47559">
        <ele>1355.6</ele>
        <time>2020-06-27T15:03:30.830Z</time>
      </trkpt>
      <trkpt lat="44.95921" lon="5.47548">
        <ele>1355.5</ele>
        <time>2020-06-27T15:03:42.013Z</time>
      </trkpt>
      <trkpt lat="44.95928" lon="5.47551">
        <ele>1354.7</ele>
        <time>2020-06-27T15:03:53.203Z</time>
      </trkpt>
      <trkpt lat="44.95931" lon="5.4755">
        <ele>1354.6</ele>
        <time>2020-06-27T15:04:04.397Z</time>
      </trkpt>
      <trkpt lat="44.9594" lon="5.47555">
        <ele>1353.7</ele>
        <time>2020-06-27T15:04:15.601Z</time>
      </trkpt>
      <trkpt lat="44.95953" lon="5.47555">
        <ele>1352.9</ele>
        <time>2020-06-27T15:04:26.820Z</time>
      </trkpt>
      <trkpt lat="44.95962" lon="5.47552">
        <ele>1352.3</ele>
        <time>2020-06-27T15:04:38.049Z</time>
      </trkpt>
      <trkpt lat="44.95972" lon="5.47544">
        <ele>1352.3</ele>
        <time>2020-06-27T15:04:49.290Z</time>
      </trkpt>
      <trkpt lat="44.95995" lon="5.47533">
        <ele>1351.5</ele>
        <time>2020-06-27T15:05:00.558Z</time>
      </trkpt>
      <trkpt lat="44.96" lon="5.47533">
        <ele>1350.9</ele>
        <time>2020-06-27T15:05:11.831Z</time>
      </trkpt>
      <trkpt lat="44.96004" lon="5.47531">
        <ele>1350.8</ele>
        <time>2020-06-27T15:05:23.109Z</time>
      </trkpt>
      <trkpt lat="44.96011" lon="5.47533">
        <ele>1349.6</ele>
        <time>2020-06-27T15:05:34.395Z</time>
      </trkpt>
      <trkpt lat="44.96014" lon="5.47531">
        <ele>1349.6</ele>
        <time>2020-06-27T15:05:45.684Z</time>
      </trkpt>
      <trkpt lat="44.96026" lon="5.4753">
        <ele>1348.5</ele>
        <time>2020-06-27T15:05:56.986Z</time>
      </trkpt>
      <trkpt lat="44.96029" lon="5.47532">
        <ele>1347.8</ele>
        <time>2020-06-27T15:06:08.292Z</time>
      </trkpt>
      <trkpt lat="44.96039" lon="5.47529">
        <ele>1347.6</ele>
        <time>2020-06-27T15:06:19.609Z</time>
      </trkpt>
      <trkpt lat="44.96061" lon="5.47525">
        <ele>1347.4</ele>
        <time>2020-06-27T15:06:30.951Z</time>
      </trkpt>
      <trkpt lat="44.96071" lon="5.47526">
        <ele>1346.7</ele>
        <time>2020-06-27T15:06:42.302Z</time>
      </trkpt>
      <trkpt lat="44.9608" lon="5.47531">
        <ele>1345.1</ele>
        <time>2020-06-27T15:06:53.664Z</time>
      </trkpt>
      <trkpt lat="44.96094" lon="5.47543">
        <ele>1341.9</ele>
        <time>2020-06-27T15:07:05.044Z</time>
      </trkpt>
      <trkpt lat="44.96102" lon="5.47555">
        <ele>1339.9</ele>
        <time>2020-06-27T15:07:16.436Z</time>
      </trkpt>
      <trkpt lat="44.96111" lon="5.47562">
        <ele>1339.3</ele>
        <time>2020-06-27T15:07:27.840Z</time>
      </trkpt>
      <trkpt lat="44.96116" lon="5.47565">
        <ele>1339</ele>
        <time>2020-06-27T15:07:39.250Z</time>
      </trkpt>
      <trkpt lat="44.96137" lon="5.4757">
        <ele>1338.7</ele>
        <time>2020-06-27T15:07:50.683Z</time>
      </trkpt>
      <trkpt lat="44.96154" lon="5.47582">
        <ele>1338.6</ele>
        <time>2020-06-27T15:08:02.136Z</time>
      </trkpt>
      <trkpt lat="44.96161" lon="5.47583">
        <ele>1338.7</ele>
        <time>2020-06-27T15:08:13.597Z</time>
      </trkpt>
      <trkpt lat="44.96166" lon="5.47588">
        <ele>1338.6</ele>
        <time>2020-06-27T15:08:25.065Z</time>
      </trkpt>
      <trkpt lat="44.96179" lon="5.47605">
        <ele>1338.3</ele>
        <time>2020-06-27T15:08:36.552Z</time>
      </trkpt>
      <trkpt lat="44.96189" lon="5.4762">
        <ele>1338.1</ele>
        <time>2020-06-27T15:08:48.055Z</time>
      </trkpt>
      <trkpt lat="44.96198" lon="5.4764">
        <ele>1337.4</ele>
        <time>2020-06-27T15:08:59.576Z</time>
      </trkpt>
      <trkpt lat="44.96205" lon="5.47649">
        <ele>1336.8</ele>
        <time>2020-06-27T15:09:11.107Z</time>
      </trkpt>
      <trkpt lat="44.96212" lon="5.47648">
        <ele>1336.6</ele>
        <time>2020-06-27T15:09:22.646Z</time>
      </trkpt>
      <trkpt lat="44.96229" lon="5.4765">
        <ele>1334.9</ele>
        <time>2020-06-27T15:09:34.204Z</time>
      </trkpt>
      <trkpt lat="44.96247" lon="5.47656">
        <ele>1332.1</ele>
        <time>2020-06-27T15:09:45.782Z</time>
      </trkpt>
      <trkpt lat="44.96251" lon="5.47658">
        <ele>1331.5</ele>
        <time>2020-06-27T15:09:57.364Z</time>
      </trkpt>
      <trkpt lat="44.9625" lon="5.47659">
        <ele>1331.7</ele>
        <time>2020-06-27T15:10:08.947Z</time>
      </trkpt>
      <trkpt lat="44.96255" lon="5.47665">
        <ele>1331</ele>
        <time>2020-06-27T15:10:20.537Z</time>
      </trkpt>
      <trkpt lat="44.96262" lon="5.47671">
        <ele>1330</ele>
        <time>2020-06-27T15:10:32.136Z</time>
      </trkpt>
      <trkpt lat="44.96265" lon="5.47676">
        <ele>1329.6</ele>
        <time>2020-06-27T15:10:43.740Z</time>
      </trkpt>
      <trkpt lat="44.96262" lon="5.47675">
        <ele>1330</ele>
        <time>2020-06-27T15:10:55.348Z</time>
      </trkpt>
      <trkpt lat="44.96265" lon="5.47677">
        <ele>1329.6</ele>
        <time>2020-06-27T15:11:06.960Z</time>
      </trkpt>
      <trkpt lat="44.96269" lon="5.47665">
        <ele>1328.8</ele>
        <time>2020-06-27T15:11:18.583Z</time>
      </trkpt>
      <trkpt lat="44.96273" lon="5.47665">
        <ele>1328.2</ele>
        <time>2020-06-27T15:11:30.210Z</time>
      </trkpt>
      <trkpt lat="44.96274" lon="5.47669">
        <ele>1328.1</ele>
        <time>2020-06-27T15:11:41.841Z</time>
      </trkpt>
    </trkseg>
  </trk>
</gpx>